<?xml version="1.0" encoding="UTF-8" standalone="no" ?>
<gpx xmlns="http://www.topografix.com/GPX/1/1" xmlns:xsi="http://www.w3.org/2001/XMLSchema-instance" xsi:schemaLocation="http://www.topografix.com/GPX/1/1 http://www.topografix.com/GPX/1/1/gpx.xsd" version="1.1" creator="VisuGPX - https://www.visugpx.com">
  <metadata>
    <name>La Dolce Via - La Voulte - Le Cheylard</name>
    <desc><![CDATA[La Dolce  Via]]></desc>
  </metadata>
  <trk>
    <name><![CDATA[La Dolce Via]]></name>
    <trkseg>
      <trkpt lat="44.81722" lon="4.787">
        <ele>107.81</ele>
        <time>2015-09-02T08:32:42Z</time>
      </trkpt>
      <trkpt lat="44.81722" lon="4.787">
        <ele>107.81</ele>
        <time>2015-09-02T08:32:43Z</time>
      </trkpt>
      <trkpt lat="44.81722" lon="4.787">
        <ele>107.81</ele>
        <time>2015-09-02T08:32:44Z</time>
      </trkpt>
      <trkpt lat="44.81726" lon="4.78696">
        <ele>107.81</ele>
        <time>2015-09-02T08:32:59Z</time>
      </trkpt>
      <trkpt lat="44.81734" lon="4.78689">
        <ele>107.81</ele>
        <time>2015-09-02T08:33:04Z</time>
      </trkpt>
      <trkpt lat="44.81736" lon="4.78687">
        <ele>107.81</ele>
        <time>2015-09-02T08:33:05Z</time>
      </trkpt>
      <trkpt lat="44.81738" lon="4.78685">
        <ele>107.81</ele>
        <time>2015-09-02T08:33:06Z</time>
      </trkpt>
      <trkpt lat="44.81767" lon="4.78661">
        <ele>107.32</ele>
        <time>2015-09-02T08:33:19Z</time>
      </trkpt>
      <trkpt lat="44.81803" lon="4.78628">
        <ele>107.32</ele>
        <time>2015-09-02T08:33:34Z</time>
      </trkpt>
      <trkpt lat="44.81827" lon="4.78597">
        <ele>107.32</ele>
        <time>2015-09-02T08:33:44Z</time>
      </trkpt>
      <trkpt lat="44.81852" lon="4.78561">
        <ele>107.32</ele>
        <time>2015-09-02T08:33:57Z</time>
      </trkpt>
      <trkpt lat="44.81891" lon="4.78517">
        <ele>108.77</ele>
        <time>2015-09-02T08:34:13Z</time>
      </trkpt>
      <trkpt lat="44.81917" lon="4.78488">
        <ele>108.77</ele>
        <time>2015-09-02T08:34:27Z</time>
      </trkpt>
      <trkpt lat="44.81939" lon="4.78457">
        <ele>109.25</ele>
        <time>2015-09-02T08:34:40Z</time>
      </trkpt>
      <trkpt lat="44.8197" lon="4.78421">
        <ele>109.73</ele>
        <time>2015-09-02T08:34:53Z</time>
      </trkpt>
      <trkpt lat="44.82002" lon="4.78382">
        <ele>109.73</ele>
        <time>2015-09-02T08:35:07Z</time>
      </trkpt>
      <trkpt lat="44.82031" lon="4.78345">
        <ele>109.73</ele>
        <time>2015-09-02T08:35:20Z</time>
      </trkpt>
      <trkpt lat="44.82061" lon="4.78321">
        <ele>110.21</ele>
        <time>2015-09-02T08:35:31Z</time>
      </trkpt>
      <trkpt lat="44.82087" lon="4.78304">
        <ele>110.69</ele>
        <time>2015-09-02T08:35:40Z</time>
      </trkpt>
      <trkpt lat="44.82128" lon="4.78272">
        <ele>111.65</ele>
        <time>2015-09-02T08:35:53Z</time>
      </trkpt>
      <trkpt lat="44.82158" lon="4.78229">
        <ele>110.69</ele>
        <time>2015-09-02T08:36:05Z</time>
      </trkpt>
      <trkpt lat="44.82175" lon="4.78188">
        <ele>110.69</ele>
        <time>2015-09-02T08:36:15Z</time>
      </trkpt>
      <trkpt lat="44.82186" lon="4.78144">
        <ele>112.13</ele>
        <time>2015-09-02T08:36:25Z</time>
      </trkpt>
      <trkpt lat="44.82195" lon="4.78091">
        <ele>113.09</ele>
        <time>2015-09-02T08:36:37Z</time>
      </trkpt>
      <trkpt lat="44.82205" lon="4.78048">
        <ele>112.13</ele>
        <time>2015-09-02T08:36:49Z</time>
      </trkpt>
      <trkpt lat="44.82206" lon="4.78045">
        <ele>112.13</ele>
        <time>2015-09-02T08:36:53Z</time>
      </trkpt>
      <trkpt lat="44.82206" lon="4.78043">
        <ele>111.17</ele>
        <time>2015-09-02T08:36:54Z</time>
      </trkpt>
      <trkpt lat="44.82206" lon="4.7804">
        <ele>111.17</ele>
        <time>2015-09-02T08:36:55Z</time>
      </trkpt>
      <trkpt lat="44.82216" lon="4.77988">
        <ele>111.65</ele>
        <time>2015-09-02T08:37:06Z</time>
      </trkpt>
      <trkpt lat="44.82215" lon="4.77916">
        <ele>112.61</ele>
        <time>2015-09-02T08:37:20Z</time>
      </trkpt>
      <trkpt lat="44.82211" lon="4.77832">
        <ele>113.09</ele>
        <time>2015-09-02T08:37:35Z</time>
      </trkpt>
      <trkpt lat="44.82208" lon="4.77755">
        <ele>114.05</ele>
        <time>2015-09-02T08:37:49Z</time>
      </trkpt>
      <trkpt lat="44.82194" lon="4.77677">
        <ele>114.05</ele>
        <time>2015-09-02T08:38:03Z</time>
      </trkpt>
      <trkpt lat="44.82189" lon="4.77615">
        <ele>114.05</ele>
        <time>2015-09-02T08:38:14Z</time>
      </trkpt>
      <trkpt lat="44.82186" lon="4.77549">
        <ele>114.53</ele>
        <time>2015-09-02T08:38:26Z</time>
      </trkpt>
      <trkpt lat="44.82181" lon="4.77493">
        <ele>114.53</ele>
        <time>2015-09-02T08:38:37Z</time>
      </trkpt>
      <trkpt lat="44.8218" lon="4.7749">
        <ele>115.01</ele>
        <time>2015-09-02T08:38:38Z</time>
      </trkpt>
      <trkpt lat="44.82179" lon="4.7743">
        <ele>115.5</ele>
        <time>2015-09-02T08:38:51Z</time>
      </trkpt>
      <trkpt lat="44.82173" lon="4.77363">
        <ele>115.5</ele>
        <time>2015-09-02T08:39:04Z</time>
      </trkpt>
      <trkpt lat="44.82159" lon="4.77302">
        <ele>115.5</ele>
        <time>2015-09-02T08:39:17Z</time>
      </trkpt>
      <trkpt lat="44.82156" lon="4.77241">
        <ele>115.5</ele>
        <time>2015-09-02T08:39:30Z</time>
      </trkpt>
      <trkpt lat="44.82157" lon="4.7722">
        <ele>115.5</ele>
        <time>2015-09-02T08:39:35Z</time>
      </trkpt>
      <trkpt lat="44.82159" lon="4.77216">
        <ele>115.5</ele>
        <time>2015-09-02T08:39:36Z</time>
      </trkpt>
      <trkpt lat="44.82159" lon="4.77211">
        <ele>115.5</ele>
        <time>2015-09-02T08:39:37Z</time>
      </trkpt>
      <trkpt lat="44.8216" lon="4.77207">
        <ele>115.5</ele>
        <time>2015-09-02T08:39:38Z</time>
      </trkpt>
      <trkpt lat="44.8216" lon="4.77202">
        <ele>115.5</ele>
        <time>2015-09-02T08:39:39Z</time>
      </trkpt>
      <trkpt lat="44.82151" lon="4.7714">
        <ele>115.5</ele>
        <time>2015-09-02T08:39:51Z</time>
      </trkpt>
      <trkpt lat="44.82148" lon="4.77084">
        <ele>116.46</ele>
        <time>2015-09-02T08:40:03Z</time>
      </trkpt>
      <trkpt lat="44.82147" lon="4.77079">
        <ele>116.46</ele>
        <time>2015-09-02T08:40:04Z</time>
      </trkpt>
      <trkpt lat="44.82129" lon="4.77023">
        <ele>116.94</ele>
        <time>2015-09-02T08:40:17Z</time>
      </trkpt>
      <trkpt lat="44.82124" lon="4.76995">
        <ele>117.9</ele>
        <time>2015-09-02T08:40:24Z</time>
      </trkpt>
      <trkpt lat="44.82124" lon="4.76991">
        <ele>117.9</ele>
        <time>2015-09-02T08:40:25Z</time>
      </trkpt>
      <trkpt lat="44.82118" lon="4.76939">
        <ele>117.9</ele>
        <time>2015-09-02T08:40:37Z</time>
      </trkpt>
      <trkpt lat="44.82087" lon="4.7688">
        <ele>118.86</ele>
        <time>2015-09-02T08:40:48Z</time>
      </trkpt>
      <trkpt lat="44.82071" lon="4.76827">
        <ele>118.86</ele>
        <time>2015-09-02T08:40:59Z</time>
      </trkpt>
      <trkpt lat="44.82066" lon="4.76764">
        <ele>120.3</ele>
        <time>2015-09-02T08:41:12Z</time>
      </trkpt>
      <trkpt lat="44.82061" lon="4.76714">
        <ele>121.26</ele>
        <time>2015-09-02T08:41:23Z</time>
      </trkpt>
      <trkpt lat="44.82044" lon="4.76648">
        <ele>121.26</ele>
        <time>2015-09-02T08:41:37Z</time>
      </trkpt>
      <trkpt lat="44.82028" lon="4.76578">
        <ele>121.26</ele>
        <time>2015-09-02T08:41:51Z</time>
      </trkpt>
      <trkpt lat="44.82021" lon="4.76505">
        <ele>121.26</ele>
        <time>2015-09-02T08:42:04Z</time>
      </trkpt>
      <trkpt lat="44.82017" lon="4.76427">
        <ele>121.74</ele>
        <time>2015-09-02T08:42:18Z</time>
      </trkpt>
      <trkpt lat="44.82007" lon="4.76337">
        <ele>120.78</ele>
        <time>2015-09-02T08:42:35Z</time>
      </trkpt>
      <trkpt lat="44.82" lon="4.76274">
        <ele>120.78</ele>
        <time>2015-09-02T08:42:48Z</time>
      </trkpt>
      <trkpt lat="44.81988" lon="4.76217">
        <ele>122.71</ele>
        <time>2015-09-02T08:43:01Z</time>
      </trkpt>
      <trkpt lat="44.81976" lon="4.76157">
        <ele>121.26</ele>
        <time>2015-09-02T08:43:13Z</time>
      </trkpt>
      <trkpt lat="44.81969" lon="4.76118">
        <ele>122.71</ele>
        <time>2015-09-02T08:43:22Z</time>
      </trkpt>
      <trkpt lat="44.81965" lon="4.7607">
        <ele>122.71</ele>
        <time>2015-09-02T08:43:36Z</time>
      </trkpt>
      <trkpt lat="44.8196" lon="4.7602">
        <ele>121.26</ele>
        <time>2015-09-02T08:43:49Z</time>
      </trkpt>
      <trkpt lat="44.81959" lon="4.75977">
        <ele>122.22</ele>
        <time>2015-09-02T08:43:58Z</time>
      </trkpt>
      <trkpt lat="44.81948" lon="4.75903">
        <ele>122.71</ele>
        <time>2015-09-02T08:44:13Z</time>
      </trkpt>
      <trkpt lat="44.81936" lon="4.75844">
        <ele>122.71</ele>
        <time>2015-09-02T08:44:25Z</time>
      </trkpt>
      <trkpt lat="44.81929" lon="4.75774">
        <ele>121.74</ele>
        <time>2015-09-02T08:44:38Z</time>
      </trkpt>
      <trkpt lat="44.81928" lon="4.75701">
        <ele>121.26</ele>
        <time>2015-09-02T08:44:52Z</time>
      </trkpt>
      <trkpt lat="44.8192" lon="4.75633">
        <ele>121.26</ele>
        <time>2015-09-02T08:45:05Z</time>
      </trkpt>
      <trkpt lat="44.81914" lon="4.75577">
        <ele>121.26</ele>
        <time>2015-09-02T08:45:16Z</time>
      </trkpt>
      <trkpt lat="44.81897" lon="4.75502">
        <ele>121.26</ele>
        <time>2015-09-02T08:45:30Z</time>
      </trkpt>
      <trkpt lat="44.8188" lon="4.75431">
        <ele>121.26</ele>
        <time>2015-09-02T08:45:45Z</time>
      </trkpt>
      <trkpt lat="44.81872" lon="4.75409">
        <ele>122.71</ele>
        <time>2015-09-02T08:45:50Z</time>
      </trkpt>
      <trkpt lat="44.81849" lon="4.75355">
        <ele>122.71</ele>
        <time>2015-09-02T08:46:04Z</time>
      </trkpt>
      <trkpt lat="44.81827" lon="4.75311">
        <ele>122.71</ele>
        <time>2015-09-02T08:46:15Z</time>
      </trkpt>
      <trkpt lat="44.818" lon="4.75249">
        <ele>123.67</ele>
        <time>2015-09-02T08:46:29Z</time>
      </trkpt>
      <trkpt lat="44.81776" lon="4.7519">
        <ele>124.63</ele>
        <time>2015-09-02T08:46:43Z</time>
      </trkpt>
      <trkpt lat="44.81752" lon="4.75136">
        <ele>125.11</ele>
        <time>2015-09-02T08:46:56Z</time>
      </trkpt>
      <trkpt lat="44.8172" lon="4.75092">
        <ele>125.11</ele>
        <time>2015-09-02T08:47:08Z</time>
      </trkpt>
      <trkpt lat="44.81693" lon="4.75053">
        <ele>125.59</ele>
        <time>2015-09-02T08:47:19Z</time>
      </trkpt>
      <trkpt lat="44.81679" lon="4.74996">
        <ele>126.07</ele>
        <time>2015-09-02T08:47:32Z</time>
      </trkpt>
      <trkpt lat="44.8166" lon="4.74905">
        <ele>126.55</ele>
        <time>2015-09-02T08:47:49Z</time>
      </trkpt>
      <trkpt lat="44.81652" lon="4.74835">
        <ele>127.03</ele>
        <time>2015-09-02T08:48:02Z</time>
      </trkpt>
      <trkpt lat="44.81639" lon="4.74769">
        <ele>127.99</ele>
        <time>2015-09-02T08:48:15Z</time>
      </trkpt>
      <trkpt lat="44.81617" lon="4.74696">
        <ele>127.99</ele>
        <time>2015-09-02T08:48:30Z</time>
      </trkpt>
      <trkpt lat="44.81616" lon="4.74686">
        <ele>127.99</ele>
        <time>2015-09-02T08:48:32Z</time>
      </trkpt>
      <trkpt lat="44.81616" lon="4.74681">
        <ele>127.99</ele>
        <time>2015-09-02T08:48:33Z</time>
      </trkpt>
      <trkpt lat="44.81616" lon="4.74676">
        <ele>127.99</ele>
        <time>2015-09-02T08:48:34Z</time>
      </trkpt>
      <trkpt lat="44.81612" lon="4.74612">
        <ele>128.47</ele>
        <time>2015-09-02T08:48:47Z</time>
      </trkpt>
      <trkpt lat="44.81619" lon="4.74532">
        <ele>128.47</ele>
        <time>2015-09-02T08:49:03Z</time>
      </trkpt>
      <trkpt lat="44.81631" lon="4.74447">
        <ele>128.47</ele>
        <time>2015-09-02T08:49:19Z</time>
      </trkpt>
      <trkpt lat="44.81642" lon="4.74376">
        <ele>128.47</ele>
        <time>2015-09-02T08:49:32Z</time>
      </trkpt>
      <trkpt lat="44.81642" lon="4.74352">
        <ele>128.47</ele>
        <time>2015-09-02T08:49:36Z</time>
      </trkpt>
      <trkpt lat="44.81642" lon="4.74275">
        <ele>128.47</ele>
        <time>2015-09-02T08:49:49Z</time>
      </trkpt>
      <trkpt lat="44.81641" lon="4.74257">
        <ele>128.47</ele>
        <time>2015-09-02T08:49:52Z</time>
      </trkpt>
      <trkpt lat="44.81637" lon="4.74185">
        <ele>128.47</ele>
        <time>2015-09-02T08:50:03Z</time>
      </trkpt>
      <trkpt lat="44.81638" lon="4.74178">
        <ele>127.51</ele>
        <time>2015-09-02T08:50:04Z</time>
      </trkpt>
      <trkpt lat="44.8164" lon="4.7416">
        <ele>127.51</ele>
        <time>2015-09-02T08:50:07Z</time>
      </trkpt>
      <trkpt lat="44.81642" lon="4.74153">
        <ele>127.51</ele>
        <time>2015-09-02T08:50:08Z</time>
      </trkpt>
      <trkpt lat="44.81647" lon="4.74128">
        <ele>127.51</ele>
        <time>2015-09-02T08:50:12Z</time>
      </trkpt>
      <trkpt lat="44.81649" lon="4.74121">
        <ele>127.03</ele>
        <time>2015-09-02T08:50:13Z</time>
      </trkpt>
      <trkpt lat="44.81664" lon="4.74072">
        <ele>126.55</ele>
        <time>2015-09-02T08:50:21Z</time>
      </trkpt>
      <trkpt lat="44.81666" lon="4.74066">
        <ele>126.55</ele>
        <time>2015-09-02T08:50:22Z</time>
      </trkpt>
      <trkpt lat="44.81681" lon="4.74023">
        <ele>126.55</ele>
        <time>2015-09-02T08:50:30Z</time>
      </trkpt>
      <trkpt lat="44.81705" lon="4.73994">
        <ele>126.55</ele>
        <time>2015-09-02T08:50:37Z</time>
      </trkpt>
      <trkpt lat="44.81709" lon="4.73991">
        <ele>126.55</ele>
        <time>2015-09-02T08:50:38Z</time>
      </trkpt>
      <trkpt lat="44.81723" lon="4.7397">
        <ele>126.55</ele>
        <time>2015-09-02T08:50:44Z</time>
      </trkpt>
      <trkpt lat="44.81725" lon="4.73968">
        <ele>126.55</ele>
        <time>2015-09-02T08:50:45Z</time>
      </trkpt>
      <trkpt lat="44.81728" lon="4.73966">
        <ele>126.55</ele>
        <time>2015-09-02T08:50:46Z</time>
      </trkpt>
      <trkpt lat="44.81751" lon="4.73935">
        <ele>126.07</ele>
        <time>2015-09-02T08:50:57Z</time>
      </trkpt>
      <trkpt lat="44.81774" lon="4.73878">
        <ele>125.59</ele>
        <time>2015-09-02T08:51:10Z</time>
      </trkpt>
      <trkpt lat="44.81774" lon="4.73809">
        <ele>125.59</ele>
        <time>2015-09-02T08:51:23Z</time>
      </trkpt>
      <trkpt lat="44.81763" lon="4.73744">
        <ele>125.11</ele>
        <time>2015-09-02T08:51:35Z</time>
      </trkpt>
      <trkpt lat="44.81759" lon="4.73694">
        <ele>125.11</ele>
        <time>2015-09-02T08:51:44Z</time>
      </trkpt>
      <trkpt lat="44.81772" lon="4.73602">
        <ele>125.59</ele>
        <time>2015-09-02T08:52:00Z</time>
      </trkpt>
      <trkpt lat="44.81782" lon="4.73564">
        <ele>126.55</ele>
        <time>2015-09-02T08:52:08Z</time>
      </trkpt>
      <trkpt lat="44.81794" lon="4.73521">
        <ele>127.03</ele>
        <time>2015-09-02T08:52:20Z</time>
      </trkpt>
      <trkpt lat="44.81802" lon="4.73444">
        <ele>127.51</ele>
        <time>2015-09-02T08:52:37Z</time>
      </trkpt>
      <trkpt lat="44.81799" lon="4.73366">
        <ele>127.51</ele>
        <time>2015-09-02T08:52:53Z</time>
      </trkpt>
      <trkpt lat="44.81794" lon="4.73289">
        <ele>127.99</ele>
        <time>2015-09-02T08:53:10Z</time>
      </trkpt>
      <trkpt lat="44.81791" lon="4.73229">
        <ele>128.47</ele>
        <time>2015-09-02T08:53:23Z</time>
      </trkpt>
      <trkpt lat="44.81786" lon="4.73183">
        <ele>128.95</ele>
        <time>2015-09-02T08:53:33Z</time>
      </trkpt>
      <trkpt lat="44.81784" lon="4.73147">
        <ele>128.95</ele>
        <time>2015-09-02T08:53:41Z</time>
      </trkpt>
      <trkpt lat="44.81782" lon="4.73145">
        <ele>129.43</ele>
        <time>2015-09-02T08:53:55Z</time>
      </trkpt>
      <trkpt lat="44.81778" lon="4.73147">
        <ele>129.43</ele>
        <time>2015-09-02T08:54:15Z</time>
      </trkpt>
      <trkpt lat="44.81772" lon="4.7314">
        <ele>129.43</ele>
        <time>2015-09-02T08:54:35Z</time>
      </trkpt>
      <trkpt lat="44.81777" lon="4.73138">
        <ele>129.43</ele>
        <time>2015-09-02T08:54:48Z</time>
      </trkpt>
      <trkpt lat="44.8178" lon="4.73127">
        <ele>129.43</ele>
        <time>2015-09-02T08:54:52Z</time>
      </trkpt>
      <trkpt lat="44.8178" lon="4.73123">
        <ele>129.43</ele>
        <time>2015-09-02T08:54:53Z</time>
      </trkpt>
      <trkpt lat="44.8178" lon="4.73119">
        <ele>129.43</ele>
        <time>2015-09-02T08:54:54Z</time>
      </trkpt>
      <trkpt lat="44.8178" lon="4.73115">
        <ele>129.43</ele>
        <time>2015-09-02T08:54:55Z</time>
      </trkpt>
      <trkpt lat="44.8178" lon="4.73111">
        <ele>129.43</ele>
        <time>2015-09-02T08:54:56Z</time>
      </trkpt>
      <trkpt lat="44.81779" lon="4.73082">
        <ele>129.43</ele>
        <time>2015-09-02T08:55:01Z</time>
      </trkpt>
      <trkpt lat="44.81779" lon="4.73057">
        <ele>129.43</ele>
        <time>2015-09-02T08:55:05Z</time>
      </trkpt>
      <trkpt lat="44.81778" lon="4.73051">
        <ele>129.43</ele>
        <time>2015-09-02T08:55:06Z</time>
      </trkpt>
      <trkpt lat="44.81778" lon="4.73044">
        <ele>129.43</ele>
        <time>2015-09-02T08:55:07Z</time>
      </trkpt>
      <trkpt lat="44.81778" lon="4.73037">
        <ele>129.43</ele>
        <time>2015-09-02T08:55:08Z</time>
      </trkpt>
      <trkpt lat="44.81777" lon="4.73031">
        <ele>129.43</ele>
        <time>2015-09-02T08:55:09Z</time>
      </trkpt>
      <trkpt lat="44.81776" lon="4.73024">
        <ele>129.92</ele>
        <time>2015-09-02T08:55:10Z</time>
      </trkpt>
      <trkpt lat="44.81776" lon="4.73017">
        <ele>129.92</ele>
        <time>2015-09-02T08:55:11Z</time>
      </trkpt>
      <trkpt lat="44.81775" lon="4.73011">
        <ele>129.92</ele>
        <time>2015-09-02T08:55:12Z</time>
      </trkpt>
      <trkpt lat="44.81765" lon="4.7291">
        <ele>131.36</ele>
        <time>2015-09-02T08:55:27Z</time>
      </trkpt>
      <trkpt lat="44.81761" lon="4.72885">
        <ele>131.36</ele>
        <time>2015-09-02T08:55:31Z</time>
      </trkpt>
      <trkpt lat="44.81761" lon="4.72879">
        <ele>131.36</ele>
        <time>2015-09-02T08:55:32Z</time>
      </trkpt>
      <trkpt lat="44.81759" lon="4.72873">
        <ele>131.36</ele>
        <time>2015-09-02T08:55:33Z</time>
      </trkpt>
      <trkpt lat="44.81758" lon="4.72867">
        <ele>131.36</ele>
        <time>2015-09-02T08:55:34Z</time>
      </trkpt>
      <trkpt lat="44.81757" lon="4.7286">
        <ele>131.36</ele>
        <time>2015-09-02T08:55:35Z</time>
      </trkpt>
      <trkpt lat="44.81754" lon="4.72847">
        <ele>131.36</ele>
        <time>2015-09-02T08:55:37Z</time>
      </trkpt>
      <trkpt lat="44.81752" lon="4.72841">
        <ele>131.36</ele>
        <time>2015-09-02T08:55:38Z</time>
      </trkpt>
      <trkpt lat="44.81739" lon="4.72811">
        <ele>131.36</ele>
        <time>2015-09-02T08:55:43Z</time>
      </trkpt>
      <trkpt lat="44.81732" lon="4.7279">
        <ele>131.36</ele>
        <time>2015-09-02T08:55:46Z</time>
      </trkpt>
      <trkpt lat="44.81729" lon="4.72783">
        <ele>131.36</ele>
        <time>2015-09-02T08:55:47Z</time>
      </trkpt>
      <trkpt lat="44.8171" lon="4.72746">
        <ele>131.84</ele>
        <time>2015-09-02T08:55:53Z</time>
      </trkpt>
      <trkpt lat="44.81651" lon="4.72686">
        <ele>131.84</ele>
        <time>2015-09-02T08:56:06Z</time>
      </trkpt>
      <trkpt lat="44.81639" lon="4.72671">
        <ele>132.32</ele>
        <time>2015-09-02T08:56:09Z</time>
      </trkpt>
      <trkpt lat="44.81631" lon="4.7266">
        <ele>132.32</ele>
        <time>2015-09-02T08:56:11Z</time>
      </trkpt>
      <trkpt lat="44.81621" lon="4.72642">
        <ele>132.32</ele>
        <time>2015-09-02T08:56:14Z</time>
      </trkpt>
      <trkpt lat="44.81614" lon="4.72615">
        <ele>132.8</ele>
        <time>2015-09-02T08:56:18Z</time>
      </trkpt>
      <trkpt lat="44.81613" lon="4.72609">
        <ele>132.8</ele>
        <time>2015-09-02T08:56:19Z</time>
      </trkpt>
      <trkpt lat="44.81611" lon="4.72602">
        <ele>132.8</ele>
        <time>2015-09-02T08:56:20Z</time>
      </trkpt>
      <trkpt lat="44.81609" lon="4.72588">
        <ele>132.8</ele>
        <time>2015-09-02T08:56:22Z</time>
      </trkpt>
      <trkpt lat="44.81603" lon="4.72524">
        <ele>133.28</ele>
        <time>2015-09-02T08:56:31Z</time>
      </trkpt>
      <trkpt lat="44.81599" lon="4.7248">
        <ele>134.24</ele>
        <time>2015-09-02T08:56:37Z</time>
      </trkpt>
      <trkpt lat="44.81599" lon="4.72473">
        <ele>134.24</ele>
        <time>2015-09-02T08:56:38Z</time>
      </trkpt>
      <trkpt lat="44.81594" lon="4.72424">
        <ele>134.24</ele>
        <time>2015-09-02T08:56:45Z</time>
      </trkpt>
      <trkpt lat="44.81594" lon="4.72417">
        <ele>134.24</ele>
        <time>2015-09-02T08:56:46Z</time>
      </trkpt>
      <trkpt lat="44.8158" lon="4.72302">
        <ele>135.2</ele>
        <time>2015-09-02T08:57:03Z</time>
      </trkpt>
      <trkpt lat="44.81577" lon="4.72277">
        <ele>135.2</ele>
        <time>2015-09-02T08:57:07Z</time>
      </trkpt>
      <trkpt lat="44.81576" lon="4.72271">
        <ele>135.68</ele>
        <time>2015-09-02T08:57:08Z</time>
      </trkpt>
      <trkpt lat="44.81569" lon="4.72228">
        <ele>136.16</ele>
        <time>2015-09-02T08:57:15Z</time>
      </trkpt>
      <trkpt lat="44.81569" lon="4.72147">
        <ele>136.64</ele>
        <time>2015-09-02T08:57:29Z</time>
      </trkpt>
      <trkpt lat="44.81582" lon="4.72076">
        <ele>137.61</ele>
        <time>2015-09-02T08:57:43Z</time>
      </trkpt>
      <trkpt lat="44.81585" lon="4.72014">
        <ele>137.61</ele>
        <time>2015-09-02T08:57:55Z</time>
      </trkpt>
      <trkpt lat="44.81602" lon="4.71949">
        <ele>138.09</ele>
        <time>2015-09-02T08:58:08Z</time>
      </trkpt>
      <trkpt lat="44.81619" lon="4.71857">
        <ele>139.05</ele>
        <time>2015-09-02T08:58:25Z</time>
      </trkpt>
      <trkpt lat="44.81627" lon="4.71807">
        <ele>140.01</ele>
        <time>2015-09-02T08:58:37Z</time>
      </trkpt>
      <trkpt lat="44.81624" lon="4.71755">
        <ele>140.01</ele>
        <time>2015-09-02T08:58:48Z</time>
      </trkpt>
      <trkpt lat="44.81602" lon="4.71707">
        <ele>140.01</ele>
        <time>2015-09-02T08:58:59Z</time>
      </trkpt>
      <trkpt lat="44.81554" lon="4.71657">
        <ele>140.01</ele>
        <time>2015-09-02T08:59:14Z</time>
      </trkpt>
      <trkpt lat="44.81528" lon="4.71603">
        <ele>140.01</ele>
        <time>2015-09-02T08:59:26Z</time>
      </trkpt>
      <trkpt lat="44.81526" lon="4.71598">
        <ele>140.01</ele>
        <time>2015-09-02T08:59:27Z</time>
      </trkpt>
      <trkpt lat="44.81524" lon="4.71593">
        <ele>140.01</ele>
        <time>2015-09-02T08:59:28Z</time>
      </trkpt>
      <trkpt lat="44.81522" lon="4.71587">
        <ele>140.01</ele>
        <time>2015-09-02T08:59:29Z</time>
      </trkpt>
      <trkpt lat="44.8152" lon="4.71582">
        <ele>140.01</ele>
        <time>2015-09-02T08:59:30Z</time>
      </trkpt>
      <trkpt lat="44.81519" lon="4.71576">
        <ele>140.01</ele>
        <time>2015-09-02T08:59:31Z</time>
      </trkpt>
      <trkpt lat="44.81519" lon="4.71571">
        <ele>140.01</ele>
        <time>2015-09-02T08:59:32Z</time>
      </trkpt>
      <trkpt lat="44.8151" lon="4.71512">
        <ele>140.49</ele>
        <time>2015-09-02T08:59:43Z</time>
      </trkpt>
      <trkpt lat="44.81493" lon="4.71448">
        <ele>141.93</ele>
        <time>2015-09-02T08:59:56Z</time>
      </trkpt>
      <trkpt lat="44.81483" lon="4.71431">
        <ele>140.49</ele>
        <time>2015-09-02T09:00:00Z</time>
      </trkpt>
      <trkpt lat="44.81458" lon="4.71389">
        <ele>140.01</ele>
        <time>2015-09-02T09:00:10Z</time>
      </trkpt>
      <trkpt lat="44.81424" lon="4.71351">
        <ele>140.01</ele>
        <time>2015-09-02T09:00:22Z</time>
      </trkpt>
      <trkpt lat="44.81407" lon="4.71333">
        <ele>140.01</ele>
        <time>2015-09-02T09:00:29Z</time>
      </trkpt>
      <trkpt lat="44.81407" lon="4.71331">
        <ele>140.01</ele>
        <time>2015-09-02T09:00:30Z</time>
      </trkpt>
      <trkpt lat="44.81406" lon="4.7133">
        <ele>139.53</ele>
        <time>2015-09-02T09:00:40Z</time>
      </trkpt>
      <trkpt lat="44.81406" lon="4.71329">
        <ele>150.1</ele>
        <time>2015-09-02T09:00:42Z</time>
      </trkpt>
      <trkpt lat="44.81406" lon="4.71329">
        <ele>140.97</ele>
        <time>2015-09-02T09:00:43Z</time>
      </trkpt>
      <trkpt lat="44.81402" lon="4.71324">
        <ele>140.49</ele>
        <time>2015-09-02T09:00:46Z</time>
      </trkpt>
      <trkpt lat="44.81399" lon="4.71327">
        <ele>140.49</ele>
        <time>2015-09-02T09:00:47Z</time>
      </trkpt>
      <trkpt lat="44.81403" lon="4.71329">
        <ele>140.49</ele>
        <time>2015-09-02T09:00:53Z</time>
      </trkpt>
      <trkpt lat="44.81402" lon="4.71329">
        <ele>140.49</ele>
        <time>2015-09-02T09:00:54Z</time>
      </trkpt>
      <trkpt lat="44.81401" lon="4.71327">
        <ele>140.49</ele>
        <time>2015-09-02T09:00:55Z</time>
      </trkpt>
      <trkpt lat="44.814" lon="4.71325">
        <ele>140.49</ele>
        <time>2015-09-02T09:00:56Z</time>
      </trkpt>
      <trkpt lat="44.81399" lon="4.71324">
        <ele>140.49</ele>
        <time>2015-09-02T09:00:57Z</time>
      </trkpt>
      <trkpt lat="44.81397" lon="4.71321">
        <ele>140.49</ele>
        <time>2015-09-02T09:00:58Z</time>
      </trkpt>
      <trkpt lat="44.81396" lon="4.71319">
        <ele>140.49</ele>
        <time>2015-09-02T09:00:59Z</time>
      </trkpt>
      <trkpt lat="44.81395" lon="4.71316">
        <ele>140.49</ele>
        <time>2015-09-02T09:01:00Z</time>
      </trkpt>
      <trkpt lat="44.81394" lon="4.71313">
        <ele>140.49</ele>
        <time>2015-09-02T09:01:01Z</time>
      </trkpt>
      <trkpt lat="44.8138" lon="4.71263">
        <ele>139.05</ele>
        <time>2015-09-02T09:01:14Z</time>
      </trkpt>
      <trkpt lat="44.81366" lon="4.71195">
        <ele>140.49</ele>
        <time>2015-09-02T09:01:27Z</time>
      </trkpt>
      <trkpt lat="44.81377" lon="4.71126">
        <ele>140.01</ele>
        <time>2015-09-02T09:01:40Z</time>
      </trkpt>
      <trkpt lat="44.81381" lon="4.71116">
        <ele>139.53</ele>
        <time>2015-09-02T09:01:48Z</time>
      </trkpt>
      <trkpt lat="44.81378" lon="4.71118">
        <ele>139.53</ele>
        <time>2015-09-02T09:02:03Z</time>
      </trkpt>
      <trkpt lat="44.81382" lon="4.71101">
        <ele>139.05</ele>
        <time>2015-09-02T09:02:15Z</time>
      </trkpt>
      <trkpt lat="44.81389" lon="4.71052">
        <ele>139.05</ele>
        <time>2015-09-02T09:02:25Z</time>
      </trkpt>
      <trkpt lat="44.81389" lon="4.71046">
        <ele>139.05</ele>
        <time>2015-09-02T09:02:26Z</time>
      </trkpt>
      <trkpt lat="44.8139" lon="4.71033">
        <ele>140.49</ele>
        <time>2015-09-02T09:02:28Z</time>
      </trkpt>
      <trkpt lat="44.81389" lon="4.71026">
        <ele>140.49</ele>
        <time>2015-09-02T09:02:29Z</time>
      </trkpt>
      <trkpt lat="44.81388" lon="4.71019">
        <ele>140.97</ele>
        <time>2015-09-02T09:02:30Z</time>
      </trkpt>
      <trkpt lat="44.81382" lon="4.70993">
        <ele>140.97</ele>
        <time>2015-09-02T09:02:34Z</time>
      </trkpt>
      <trkpt lat="44.81356" lon="4.70922">
        <ele>140.97</ele>
        <time>2015-09-02T09:02:47Z</time>
      </trkpt>
      <trkpt lat="44.81354" lon="4.70916">
        <ele>139.53</ele>
        <time>2015-09-02T09:02:48Z</time>
      </trkpt>
      <trkpt lat="44.81346" lon="4.70895">
        <ele>138.57</ele>
        <time>2015-09-02T09:02:52Z</time>
      </trkpt>
      <trkpt lat="44.81336" lon="4.70868">
        <ele>140.01</ele>
        <time>2015-09-02T09:02:57Z</time>
      </trkpt>
      <trkpt lat="44.81321" lon="4.70831">
        <ele>140.01</ele>
        <time>2015-09-02T09:03:04Z</time>
      </trkpt>
      <trkpt lat="44.8131" lon="4.70756">
        <ele>140.01</ele>
        <time>2015-09-02T09:03:17Z</time>
      </trkpt>
      <trkpt lat="44.8131" lon="4.70744">
        <ele>140.01</ele>
        <time>2015-09-02T09:03:19Z</time>
      </trkpt>
      <trkpt lat="44.81311" lon="4.70737">
        <ele>140.01</ele>
        <time>2015-09-02T09:03:20Z</time>
      </trkpt>
      <trkpt lat="44.81343" lon="4.70672">
        <ele>140.01</ele>
        <time>2015-09-02T09:03:33Z</time>
      </trkpt>
      <trkpt lat="44.81371" lon="4.7063">
        <ele>140.01</ele>
        <time>2015-09-02T09:03:45Z</time>
      </trkpt>
      <trkpt lat="44.81406" lon="4.70603">
        <ele>140.01</ele>
        <time>2015-09-02T09:03:57Z</time>
      </trkpt>
      <trkpt lat="44.81452" lon="4.70603">
        <ele>140.01</ele>
        <time>2015-09-02T09:04:10Z</time>
      </trkpt>
      <trkpt lat="44.81492" lon="4.70621">
        <ele>140.01</ele>
        <time>2015-09-02T09:04:21Z</time>
      </trkpt>
      <trkpt lat="44.81545" lon="4.70637">
        <ele>140.01</ele>
        <time>2015-09-02T09:04:35Z</time>
      </trkpt>
      <trkpt lat="44.81596" lon="4.70616">
        <ele>140.97</ele>
        <time>2015-09-02T09:04:49Z</time>
      </trkpt>
      <trkpt lat="44.8163" lon="4.70559">
        <ele>141.45</ele>
        <time>2015-09-02T09:05:04Z</time>
      </trkpt>
      <trkpt lat="44.81634" lon="4.70511">
        <ele>141.45</ele>
        <time>2015-09-02T09:05:14Z</time>
      </trkpt>
      <trkpt lat="44.81643" lon="4.70438">
        <ele>141.93</ele>
        <time>2015-09-02T09:05:28Z</time>
      </trkpt>
      <trkpt lat="44.81655" lon="4.70363">
        <ele>141.93</ele>
        <time>2015-09-02T09:05:43Z</time>
      </trkpt>
      <trkpt lat="44.81667" lon="4.70306">
        <ele>141.93</ele>
        <time>2015-09-02T09:05:56Z</time>
      </trkpt>
      <trkpt lat="44.81665" lon="4.70237">
        <ele>142.89</ele>
        <time>2015-09-02T09:06:11Z</time>
      </trkpt>
      <trkpt lat="44.81655" lon="4.70176">
        <ele>142.89</ele>
        <time>2015-09-02T09:06:24Z</time>
      </trkpt>
      <trkpt lat="44.81646" lon="4.70121">
        <ele>142.89</ele>
        <time>2015-09-02T09:06:37Z</time>
      </trkpt>
      <trkpt lat="44.81654" lon="4.70063">
        <ele>142.89</ele>
        <time>2015-09-02T09:06:49Z</time>
      </trkpt>
      <trkpt lat="44.81663" lon="4.70005">
        <ele>142.89</ele>
        <time>2015-09-02T09:07:01Z</time>
      </trkpt>
      <trkpt lat="44.81668" lon="4.69943">
        <ele>142.89</ele>
        <time>2015-09-02T09:07:13Z</time>
      </trkpt>
      <trkpt lat="44.81662" lon="4.69891">
        <ele>142.89</ele>
        <time>2015-09-02T09:07:27Z</time>
      </trkpt>
      <trkpt lat="44.81649" lon="4.69845">
        <ele>142.89</ele>
        <time>2015-09-02T09:07:40Z</time>
      </trkpt>
      <trkpt lat="44.81634" lon="4.69775">
        <ele>142.89</ele>
        <time>2015-09-02T09:07:56Z</time>
      </trkpt>
      <trkpt lat="44.81641" lon="4.69715">
        <ele>142.89</ele>
        <time>2015-09-02T09:08:11Z</time>
      </trkpt>
      <trkpt lat="44.81663" lon="4.69652">
        <ele>142.41</ele>
        <time>2015-09-02T09:08:26Z</time>
      </trkpt>
      <trkpt lat="44.81676" lon="4.69599">
        <ele>142.41</ele>
        <time>2015-09-02T09:08:38Z</time>
      </trkpt>
      <trkpt lat="44.81688" lon="4.69528">
        <ele>141.93</ele>
        <time>2015-09-02T09:08:53Z</time>
      </trkpt>
      <trkpt lat="44.81717" lon="4.69476">
        <ele>141.93</ele>
        <time>2015-09-02T09:09:06Z</time>
      </trkpt>
      <trkpt lat="44.81777" lon="4.69445">
        <ele>142.89</ele>
        <time>2015-09-02T09:09:22Z</time>
      </trkpt>
      <trkpt lat="44.81833" lon="4.69426">
        <ele>142.89</ele>
        <time>2015-09-02T09:09:37Z</time>
      </trkpt>
      <trkpt lat="44.81892" lon="4.69409">
        <ele>143.37</ele>
        <time>2015-09-02T09:09:51Z</time>
      </trkpt>
      <trkpt lat="44.81948" lon="4.69414">
        <ele>143.37</ele>
        <time>2015-09-02T09:10:05Z</time>
      </trkpt>
      <trkpt lat="44.82003" lon="4.69448">
        <ele>143.85</ele>
        <time>2015-09-02T09:10:19Z</time>
      </trkpt>
      <trkpt lat="44.82067" lon="4.6951">
        <ele>145.3</ele>
        <time>2015-09-02T09:10:37Z</time>
      </trkpt>
      <trkpt lat="44.82129" lon="4.69566">
        <ele>146.26</ele>
        <time>2015-09-02T09:10:55Z</time>
      </trkpt>
      <trkpt lat="44.82179" lon="4.69577">
        <ele>146.74</ele>
        <time>2015-09-02T09:11:09Z</time>
      </trkpt>
      <trkpt lat="44.82194" lon="4.69574">
        <ele>146.74</ele>
        <time>2015-09-02T09:11:13Z</time>
      </trkpt>
      <trkpt lat="44.82226" lon="4.69558">
        <ele>147.22</ele>
        <time>2015-09-02T09:11:24Z</time>
      </trkpt>
      <trkpt lat="44.8226" lon="4.69525">
        <ele>147.22</ele>
        <time>2015-09-02T09:11:35Z</time>
      </trkpt>
      <trkpt lat="44.82267" lon="4.6952">
        <ele>146.26</ele>
        <time>2015-09-02T09:11:37Z</time>
      </trkpt>
      <trkpt lat="44.82287" lon="4.69503">
        <ele>147.7</ele>
        <time>2015-09-02T09:11:43Z</time>
      </trkpt>
      <trkpt lat="44.82329" lon="4.69449">
        <ele>147.7</ele>
        <time>2015-09-02T09:11:57Z</time>
      </trkpt>
      <trkpt lat="44.82366" lon="4.69389">
        <ele>148.18</ele>
        <time>2015-09-02T09:12:10Z</time>
      </trkpt>
      <trkpt lat="44.82396" lon="4.69316">
        <ele>148.66</ele>
        <time>2015-09-02T09:12:24Z</time>
      </trkpt>
      <trkpt lat="44.82424" lon="4.69232">
        <ele>148.66</ele>
        <time>2015-09-02T09:12:40Z</time>
      </trkpt>
      <trkpt lat="44.82456" lon="4.69125">
        <ele>149.14</ele>
        <time>2015-09-02T09:13:00Z</time>
      </trkpt>
      <trkpt lat="44.82492" lon="4.69053">
        <ele>149.14</ele>
        <time>2015-09-02T09:13:15Z</time>
      </trkpt>
      <trkpt lat="44.82534" lon="4.68972">
        <ele>149.14</ele>
        <time>2015-09-02T09:13:32Z</time>
      </trkpt>
      <trkpt lat="44.8254" lon="4.6891">
        <ele>149.14</ele>
        <time>2015-09-02T09:13:42Z</time>
      </trkpt>
      <trkpt lat="44.8254" lon="4.68904">
        <ele>149.14</ele>
        <time>2015-09-02T09:13:43Z</time>
      </trkpt>
      <trkpt lat="44.82522" lon="4.688">
        <ele>148.18</ele>
        <time>2015-09-02T09:14:00Z</time>
      </trkpt>
      <trkpt lat="44.82521" lon="4.68782">
        <ele>148.18</ele>
        <time>2015-09-02T09:14:03Z</time>
      </trkpt>
      <trkpt lat="44.8253" lon="4.68672">
        <ele>148.18</ele>
        <time>2015-09-02T09:14:21Z</time>
      </trkpt>
      <trkpt lat="44.82504" lon="4.68572">
        <ele>148.18</ele>
        <time>2015-09-02T09:14:38Z</time>
      </trkpt>
      <trkpt lat="44.82499" lon="4.68554">
        <ele>148.18</ele>
        <time>2015-09-02T09:14:41Z</time>
      </trkpt>
      <trkpt lat="44.82496" lon="4.6849">
        <ele>148.18</ele>
        <time>2015-09-02T09:14:50Z</time>
      </trkpt>
      <trkpt lat="44.82498" lon="4.68483">
        <ele>148.18</ele>
        <time>2015-09-02T09:14:51Z</time>
      </trkpt>
      <trkpt lat="44.82499" lon="4.68477">
        <ele>148.18</ele>
        <time>2015-09-02T09:14:52Z</time>
      </trkpt>
      <trkpt lat="44.82505" lon="4.68457">
        <ele>148.18</ele>
        <time>2015-09-02T09:14:55Z</time>
      </trkpt>
      <trkpt lat="44.82558" lon="4.68364">
        <ele>148.18</ele>
        <time>2015-09-02T09:15:11Z</time>
      </trkpt>
      <trkpt lat="44.82604" lon="4.68269">
        <ele>149.14</ele>
        <time>2015-09-02T09:15:27Z</time>
      </trkpt>
      <trkpt lat="44.82635" lon="4.68167">
        <ele>149.62</ele>
        <time>2015-09-02T09:15:43Z</time>
      </trkpt>
      <trkpt lat="44.82639" lon="4.68124">
        <ele>149.62</ele>
        <time>2015-09-02T09:15:51Z</time>
      </trkpt>
      <trkpt lat="44.82638" lon="4.68118">
        <ele>149.62</ele>
        <time>2015-09-02T09:15:52Z</time>
      </trkpt>
      <trkpt lat="44.82637" lon="4.68113">
        <ele>150.1</ele>
        <time>2015-09-02T09:15:53Z</time>
      </trkpt>
      <trkpt lat="44.82628" lon="4.68087">
        <ele>150.1</ele>
        <time>2015-09-02T09:15:58Z</time>
      </trkpt>
      <trkpt lat="44.82618" lon="4.68069">
        <ele>151.06</ele>
        <time>2015-09-02T09:16:02Z</time>
      </trkpt>
      <trkpt lat="44.82588" lon="4.6801">
        <ele>152.03</ele>
        <time>2015-09-02T09:16:17Z</time>
      </trkpt>
      <trkpt lat="44.82588" lon="4.68007">
        <ele>152.03</ele>
        <time>2015-09-02T09:16:18Z</time>
      </trkpt>
      <trkpt lat="44.8259" lon="4.68006">
        <ele>152.03</ele>
        <time>2015-09-02T09:16:19Z</time>
      </trkpt>
      <trkpt lat="44.82593" lon="4.68006">
        <ele>152.03</ele>
        <time>2015-09-02T09:16:20Z</time>
      </trkpt>
      <trkpt lat="44.82596" lon="4.68006">
        <ele>152.03</ele>
        <time>2015-09-02T09:16:21Z</time>
      </trkpt>
      <trkpt lat="44.82608" lon="4.68006">
        <ele>152.03</ele>
        <time>2015-09-02T09:16:24Z</time>
      </trkpt>
      <trkpt lat="44.82613" lon="4.68005">
        <ele>152.03</ele>
        <time>2015-09-02T09:16:25Z</time>
      </trkpt>
      <trkpt lat="44.82617" lon="4.68002">
        <ele>152.03</ele>
        <time>2015-09-02T09:16:26Z</time>
      </trkpt>
      <trkpt lat="44.8262" lon="4.67998">
        <ele>152.03</ele>
        <time>2015-09-02T09:16:27Z</time>
      </trkpt>
      <trkpt lat="44.82622" lon="4.67992">
        <ele>152.03</ele>
        <time>2015-09-02T09:16:28Z</time>
      </trkpt>
      <trkpt lat="44.82624" lon="4.67986">
        <ele>150.58</ele>
        <time>2015-09-02T09:16:29Z</time>
      </trkpt>
      <trkpt lat="44.82625" lon="4.6798">
        <ele>150.58</ele>
        <time>2015-09-02T09:16:30Z</time>
      </trkpt>
      <trkpt lat="44.82625" lon="4.67973">
        <ele>150.58</ele>
        <time>2015-09-02T09:16:31Z</time>
      </trkpt>
      <trkpt lat="44.82629" lon="4.67879">
        <ele>150.1</ele>
        <time>2015-09-02T09:16:46Z</time>
      </trkpt>
      <trkpt lat="44.82631" lon="4.67768">
        <ele>150.1</ele>
        <time>2015-09-02T09:17:02Z</time>
      </trkpt>
      <trkpt lat="44.82618" lon="4.67655">
        <ele>149.62</ele>
        <time>2015-09-02T09:17:19Z</time>
      </trkpt>
      <trkpt lat="44.82616" lon="4.67641">
        <ele>149.62</ele>
        <time>2015-09-02T09:17:21Z</time>
      </trkpt>
      <trkpt lat="44.82599" lon="4.67533">
        <ele>149.62</ele>
        <time>2015-09-02T09:17:37Z</time>
      </trkpt>
      <trkpt lat="44.82594" lon="4.67507">
        <ele>151.06</ele>
        <time>2015-09-02T09:17:41Z</time>
      </trkpt>
      <trkpt lat="44.82566" lon="4.67396">
        <ele>151.54</ele>
        <time>2015-09-02T09:17:58Z</time>
      </trkpt>
      <trkpt lat="44.82561" lon="4.67384">
        <ele>151.54</ele>
        <time>2015-09-02T09:18:00Z</time>
      </trkpt>
      <trkpt lat="44.82542" lon="4.67354">
        <ele>151.54</ele>
        <time>2015-09-02T09:18:06Z</time>
      </trkpt>
      <trkpt lat="44.82531" lon="4.67341">
        <ele>151.54</ele>
        <time>2015-09-02T09:18:09Z</time>
      </trkpt>
      <trkpt lat="44.82483" lon="4.67268">
        <ele>151.54</ele>
        <time>2015-09-02T09:18:24Z</time>
      </trkpt>
      <trkpt lat="44.82443" lon="4.67178">
        <ele>152.03</ele>
        <time>2015-09-02T09:18:41Z</time>
      </trkpt>
      <trkpt lat="44.82402" lon="4.6708">
        <ele>152.51</ele>
        <time>2015-09-02T09:19:00Z</time>
      </trkpt>
      <trkpt lat="44.82399" lon="4.67075">
        <ele>152.51</ele>
        <time>2015-09-02T09:19:01Z</time>
      </trkpt>
      <trkpt lat="44.82397" lon="4.6707">
        <ele>152.51</ele>
        <time>2015-09-02T09:19:02Z</time>
      </trkpt>
      <trkpt lat="44.82395" lon="4.67064">
        <ele>152.51</ele>
        <time>2015-09-02T09:19:03Z</time>
      </trkpt>
      <trkpt lat="44.82393" lon="4.67059">
        <ele>152.51</ele>
        <time>2015-09-02T09:19:04Z</time>
      </trkpt>
      <trkpt lat="44.8235" lon="4.66978">
        <ele>152.99</ele>
        <time>2015-09-02T09:19:21Z</time>
      </trkpt>
      <trkpt lat="44.823" lon="4.66902">
        <ele>153.47</ele>
        <time>2015-09-02T09:19:39Z</time>
      </trkpt>
      <trkpt lat="44.82289" lon="4.66885">
        <ele>153.47</ele>
        <time>2015-09-02T09:19:43Z</time>
      </trkpt>
      <trkpt lat="44.82286" lon="4.66881">
        <ele>153.47</ele>
        <time>2015-09-02T09:19:44Z</time>
      </trkpt>
      <trkpt lat="44.82276" lon="4.66869">
        <ele>153.47</ele>
        <time>2015-09-02T09:19:47Z</time>
      </trkpt>
      <trkpt lat="44.82224" lon="4.66793">
        <ele>153.95</ele>
        <time>2015-09-02T09:20:05Z</time>
      </trkpt>
      <trkpt lat="44.8219" lon="4.66733">
        <ele>154.43</ele>
        <time>2015-09-02T09:20:18Z</time>
      </trkpt>
      <trkpt lat="44.82185" lon="4.66723">
        <ele>154.43</ele>
        <time>2015-09-02T09:20:20Z</time>
      </trkpt>
      <trkpt lat="44.82138" lon="4.66643">
        <ele>155.39</ele>
        <time>2015-09-02T09:20:38Z</time>
      </trkpt>
      <trkpt lat="44.82084" lon="4.66592">
        <ele>155.87</ele>
        <time>2015-09-02T09:20:55Z</time>
      </trkpt>
      <trkpt lat="44.82036" lon="4.66525">
        <ele>156.35</ele>
        <time>2015-09-02T09:21:12Z</time>
      </trkpt>
      <trkpt lat="44.81993" lon="4.66451">
        <ele>157.31</ele>
        <time>2015-09-02T09:21:29Z</time>
      </trkpt>
      <trkpt lat="44.81965" lon="4.66392">
        <ele>157.79</ele>
        <time>2015-09-02T09:21:42Z</time>
      </trkpt>
      <trkpt lat="44.81954" lon="4.66341">
        <ele>158.27</ele>
        <time>2015-09-02T09:21:52Z</time>
      </trkpt>
      <trkpt lat="44.81928" lon="4.66242">
        <ele>158.75</ele>
        <time>2015-09-02T09:22:12Z</time>
      </trkpt>
      <trkpt lat="44.81899" lon="4.66166">
        <ele>160.2</ele>
        <time>2015-09-02T09:22:28Z</time>
      </trkpt>
      <trkpt lat="44.81864" lon="4.66095">
        <ele>160.2</ele>
        <time>2015-09-02T09:22:44Z</time>
      </trkpt>
      <trkpt lat="44.81842" lon="4.66014">
        <ele>161.16</ele>
        <time>2015-09-02T09:23:00Z</time>
      </trkpt>
      <trkpt lat="44.81835" lon="4.65924">
        <ele>161.64</ele>
        <time>2015-09-02T09:23:17Z</time>
      </trkpt>
      <trkpt lat="44.81834" lon="4.65866">
        <ele>161.64</ele>
        <time>2015-09-02T09:23:29Z</time>
      </trkpt>
      <trkpt lat="44.81834" lon="4.65793">
        <ele>162.6</ele>
        <time>2015-09-02T09:23:43Z</time>
      </trkpt>
      <trkpt lat="44.81827" lon="4.65715">
        <ele>163.08</ele>
        <time>2015-09-02T09:23:59Z</time>
      </trkpt>
      <trkpt lat="44.81818" lon="4.65643">
        <ele>163.56</ele>
        <time>2015-09-02T09:24:13Z</time>
      </trkpt>
      <trkpt lat="44.81805" lon="4.65563">
        <ele>164.04</ele>
        <time>2015-09-02T09:24:29Z</time>
      </trkpt>
      <trkpt lat="44.81788" lon="4.65477">
        <ele>165.48</ele>
        <time>2015-09-02T09:24:46Z</time>
      </trkpt>
      <trkpt lat="44.81783" lon="4.65418">
        <ele>165.48</ele>
        <time>2015-09-02T09:24:58Z</time>
      </trkpt>
      <trkpt lat="44.81788" lon="4.65339">
        <ele>166.93</ele>
        <time>2015-09-02T09:25:13Z</time>
      </trkpt>
      <trkpt lat="44.81775" lon="4.65264">
        <ele>166.93</ele>
        <time>2015-09-02T09:25:27Z</time>
      </trkpt>
      <trkpt lat="44.81762" lon="4.6519">
        <ele>167.89</ele>
        <time>2015-09-02T09:25:41Z</time>
      </trkpt>
      <trkpt lat="44.81754" lon="4.65108">
        <ele>168.37</ele>
        <time>2015-09-02T09:25:56Z</time>
      </trkpt>
      <trkpt lat="44.81751" lon="4.65019">
        <ele>169.33</ele>
        <time>2015-09-02T09:26:12Z</time>
      </trkpt>
      <trkpt lat="44.81744" lon="4.6493">
        <ele>169.81</ele>
        <time>2015-09-02T09:26:28Z</time>
      </trkpt>
      <trkpt lat="44.81739" lon="4.64849">
        <ele>170.29</ele>
        <time>2015-09-02T09:26:43Z</time>
      </trkpt>
      <trkpt lat="44.81724" lon="4.64744">
        <ele>171.25</ele>
        <time>2015-09-02T09:27:03Z</time>
      </trkpt>
      <trkpt lat="44.81711" lon="4.64659">
        <ele>171.25</ele>
        <time>2015-09-02T09:27:19Z</time>
      </trkpt>
      <trkpt lat="44.81723" lon="4.64585">
        <ele>171.25</ele>
        <time>2015-09-02T09:27:32Z</time>
      </trkpt>
      <trkpt lat="44.8173" lon="4.6453">
        <ele>172.21</ele>
        <time>2015-09-02T09:27:42Z</time>
      </trkpt>
      <trkpt lat="44.81726" lon="4.64459">
        <ele>172.21</ele>
        <time>2015-09-02T09:27:55Z</time>
      </trkpt>
      <trkpt lat="44.81702" lon="4.64375">
        <ele>172.69</ele>
        <time>2015-09-02T09:28:11Z</time>
      </trkpt>
      <trkpt lat="44.81648" lon="4.64298">
        <ele>172.69</ele>
        <time>2015-09-02T09:28:30Z</time>
      </trkpt>
      <trkpt lat="44.81583" lon="4.6422">
        <ele>172.69</ele>
        <time>2015-09-02T09:28:48Z</time>
      </trkpt>
      <trkpt lat="44.81513" lon="4.64188">
        <ele>172.69</ele>
        <time>2015-09-02T09:29:03Z</time>
      </trkpt>
      <trkpt lat="44.81436" lon="4.64181">
        <ele>172.69</ele>
        <time>2015-09-02T09:29:19Z</time>
      </trkpt>
      <trkpt lat="44.81417" lon="4.64176">
        <ele>172.69</ele>
        <time>2015-09-02T09:29:23Z</time>
      </trkpt>
      <trkpt lat="44.81412" lon="4.64174">
        <ele>172.69</ele>
        <time>2015-09-02T09:29:24Z</time>
      </trkpt>
      <trkpt lat="44.81392" lon="4.64159">
        <ele>173.66</ele>
        <time>2015-09-02T09:29:29Z</time>
      </trkpt>
      <trkpt lat="44.8135" lon="4.64092">
        <ele>173.66</ele>
        <time>2015-09-02T09:29:45Z</time>
      </trkpt>
      <trkpt lat="44.81314" lon="4.64015">
        <ele>174.14</ele>
        <time>2015-09-02T09:30:03Z</time>
      </trkpt>
      <trkpt lat="44.81272" lon="4.63985">
        <ele>175.58</ele>
        <time>2015-09-02T09:30:18Z</time>
      </trkpt>
      <trkpt lat="44.81219" lon="4.63967">
        <ele>176.54</ele>
        <time>2015-09-02T09:30:33Z</time>
      </trkpt>
      <trkpt lat="44.81175" lon="4.63929">
        <ele>177.98</ele>
        <time>2015-09-02T09:30:47Z</time>
      </trkpt>
      <trkpt lat="44.81153" lon="4.63858">
        <ele>179.42</ele>
        <time>2015-09-02T09:31:02Z</time>
      </trkpt>
      <trkpt lat="44.81156" lon="4.6378">
        <ele>180.38</ele>
        <time>2015-09-02T09:31:17Z</time>
      </trkpt>
      <trkpt lat="44.81145" lon="4.63698">
        <ele>181.35</ele>
        <time>2015-09-02T09:31:33Z</time>
      </trkpt>
      <trkpt lat="44.81113" lon="4.63595">
        <ele>183.27</ele>
        <time>2015-09-02T09:31:56Z</time>
      </trkpt>
      <trkpt lat="44.8109" lon="4.63532">
        <ele>183.75</ele>
        <time>2015-09-02T09:32:11Z</time>
      </trkpt>
      <trkpt lat="44.8105" lon="4.63453">
        <ele>185.19</ele>
        <time>2015-09-02T09:32:32Z</time>
      </trkpt>
      <trkpt lat="44.81028" lon="4.63377">
        <ele>185.67</ele>
        <time>2015-09-02T09:32:49Z</time>
      </trkpt>
      <trkpt lat="44.81005" lon="4.63303">
        <ele>186.63</ele>
        <time>2015-09-02T09:33:05Z</time>
      </trkpt>
      <trkpt lat="44.80972" lon="4.63256">
        <ele>187.59</ele>
        <time>2015-09-02T09:33:20Z</time>
      </trkpt>
      <trkpt lat="44.80928" lon="4.63204">
        <ele>189.04</ele>
        <time>2015-09-02T09:33:36Z</time>
      </trkpt>
      <trkpt lat="44.80887" lon="4.63134">
        <ele>190</ele>
        <time>2015-09-02T09:33:54Z</time>
      </trkpt>
      <trkpt lat="44.80843" lon="4.63056">
        <ele>191.44</ele>
        <time>2015-09-02T09:34:14Z</time>
      </trkpt>
      <trkpt lat="44.80796" lon="4.63025">
        <ele>191.44</ele>
        <time>2015-09-02T09:34:29Z</time>
      </trkpt>
      <trkpt lat="44.80749" lon="4.63019">
        <ele>192.88</ele>
        <time>2015-09-02T09:34:43Z</time>
      </trkpt>
      <trkpt lat="44.80706" lon="4.6299">
        <ele>193.84</ele>
        <time>2015-09-02T09:34:58Z</time>
      </trkpt>
      <trkpt lat="44.80677" lon="4.62924">
        <ele>194.8</ele>
        <time>2015-09-02T09:35:13Z</time>
      </trkpt>
      <trkpt lat="44.80681" lon="4.62847">
        <ele>196.73</ele>
        <time>2015-09-02T09:35:28Z</time>
      </trkpt>
      <trkpt lat="44.80702" lon="4.62775">
        <ele>196.73</ele>
        <time>2015-09-02T09:35:43Z</time>
      </trkpt>
      <trkpt lat="44.80718" lon="4.62702">
        <ele>197.69</ele>
        <time>2015-09-02T09:35:58Z</time>
      </trkpt>
      <trkpt lat="44.8071" lon="4.62627">
        <ele>198.17</ele>
        <time>2015-09-02T09:36:13Z</time>
      </trkpt>
      <trkpt lat="44.8067" lon="4.62555">
        <ele>198.65</ele>
        <time>2015-09-02T09:36:31Z</time>
      </trkpt>
      <trkpt lat="44.80628" lon="4.62491">
        <ele>200.09</ele>
        <time>2015-09-02T09:36:48Z</time>
      </trkpt>
      <trkpt lat="44.80594" lon="4.62445">
        <ele>201.53</ele>
        <time>2015-09-02T09:37:01Z</time>
      </trkpt>
      <trkpt lat="44.80553" lon="4.62386">
        <ele>202.49</ele>
        <time>2015-09-02T09:37:18Z</time>
      </trkpt>
      <trkpt lat="44.80552" lon="4.62383">
        <ele>202.98</ele>
        <time>2015-09-02T09:37:19Z</time>
      </trkpt>
      <trkpt lat="44.80551" lon="4.62379">
        <ele>202.98</ele>
        <time>2015-09-02T09:37:20Z</time>
      </trkpt>
      <trkpt lat="44.8054" lon="4.6234">
        <ele>203.94</ele>
        <time>2015-09-02T09:37:32Z</time>
      </trkpt>
      <trkpt lat="44.80531" lon="4.62333">
        <ele>203.94</ele>
        <time>2015-09-02T09:37:41Z</time>
      </trkpt>
      <trkpt lat="44.80506" lon="4.62308">
        <ele>203.94</ele>
        <time>2015-09-02T09:37:50Z</time>
      </trkpt>
      <trkpt lat="44.80489" lon="4.62287">
        <ele>203.94</ele>
        <time>2015-09-02T09:37:55Z</time>
      </trkpt>
      <trkpt lat="44.80483" lon="4.62276">
        <ele>202.01</ele>
        <time>2015-09-02T09:37:57Z</time>
      </trkpt>
      <trkpt lat="44.80447" lon="4.62193">
        <ele>201.53</ele>
        <time>2015-09-02T09:38:10Z</time>
      </trkpt>
      <trkpt lat="44.80443" lon="4.62179">
        <ele>201.05</ele>
        <time>2015-09-02T09:38:12Z</time>
      </trkpt>
      <trkpt lat="44.80441" lon="4.62171">
        <ele>201.05</ele>
        <time>2015-09-02T09:38:13Z</time>
      </trkpt>
      <trkpt lat="44.80442" lon="4.62163">
        <ele>201.05</ele>
        <time>2015-09-02T09:38:14Z</time>
      </trkpt>
      <trkpt lat="44.80444" lon="4.62156">
        <ele>201.05</ele>
        <time>2015-09-02T09:38:15Z</time>
      </trkpt>
      <trkpt lat="44.80447" lon="4.6215">
        <ele>201.05</ele>
        <time>2015-09-02T09:38:16Z</time>
      </trkpt>
      <trkpt lat="44.80449" lon="4.62144">
        <ele>201.05</ele>
        <time>2015-09-02T09:38:17Z</time>
      </trkpt>
      <trkpt lat="44.8046" lon="4.62121">
        <ele>202.49</ele>
        <time>2015-09-02T09:38:21Z</time>
      </trkpt>
      <trkpt lat="44.80472" lon="4.62099">
        <ele>203.46</ele>
        <time>2015-09-02T09:38:25Z</time>
      </trkpt>
      <trkpt lat="44.80486" lon="4.62083">
        <ele>204.42</ele>
        <time>2015-09-02T09:38:29Z</time>
      </trkpt>
      <trkpt lat="44.8051" lon="4.62048">
        <ele>206.82</ele>
        <time>2015-09-02T09:38:37Z</time>
      </trkpt>
      <trkpt lat="44.80538" lon="4.61974">
        <ele>206.82</ele>
        <time>2015-09-02T09:38:52Z</time>
      </trkpt>
      <trkpt lat="44.80554" lon="4.61896">
        <ele>206.82</ele>
        <time>2015-09-02T09:39:08Z</time>
      </trkpt>
      <trkpt lat="44.8055" lon="4.61887">
        <ele>207.78</ele>
        <time>2015-09-02T09:39:18Z</time>
      </trkpt>
      <trkpt lat="44.8055" lon="4.61885">
        <ele>207.78</ele>
        <time>2015-09-02T09:39:19Z</time>
      </trkpt>
      <trkpt lat="44.8055" lon="4.61872">
        <ele>206.34</ele>
        <time>2015-09-02T09:39:24Z</time>
      </trkpt>
      <trkpt lat="44.80536" lon="4.61814">
        <ele>206.34</ele>
        <time>2015-09-02T09:39:37Z</time>
      </trkpt>
      <trkpt lat="44.80531" lon="4.6175">
        <ele>206.34</ele>
        <time>2015-09-02T09:39:48Z</time>
      </trkpt>
      <trkpt lat="44.80536" lon="4.61651">
        <ele>206.34</ele>
        <time>2015-09-02T09:40:06Z</time>
      </trkpt>
      <trkpt lat="44.80543" lon="4.61594">
        <ele>206.34</ele>
        <time>2015-09-02T09:40:16Z</time>
      </trkpt>
      <trkpt lat="44.80545" lon="4.61589">
        <ele>206.34</ele>
        <time>2015-09-02T09:40:17Z</time>
      </trkpt>
      <trkpt lat="44.80549" lon="4.61578">
        <ele>206.34</ele>
        <time>2015-09-02T09:40:19Z</time>
      </trkpt>
      <trkpt lat="44.8058" lon="4.61533">
        <ele>206.34</ele>
        <time>2015-09-02T09:40:31Z</time>
      </trkpt>
      <trkpt lat="44.80626" lon="4.61514">
        <ele>206.34</ele>
        <time>2015-09-02T09:40:43Z</time>
      </trkpt>
      <trkpt lat="44.80638" lon="4.61514">
        <ele>206.34</ele>
        <time>2015-09-02T09:40:46Z</time>
      </trkpt>
      <trkpt lat="44.80668" lon="4.61521">
        <ele>206.34</ele>
        <time>2015-09-02T09:40:53Z</time>
      </trkpt>
      <trkpt lat="44.80684" lon="4.61531">
        <ele>206.34</ele>
        <time>2015-09-02T09:40:57Z</time>
      </trkpt>
      <trkpt lat="44.80688" lon="4.61535">
        <ele>206.34</ele>
        <time>2015-09-02T09:40:58Z</time>
      </trkpt>
      <trkpt lat="44.80691" lon="4.61538">
        <ele>206.34</ele>
        <time>2015-09-02T09:40:59Z</time>
      </trkpt>
      <trkpt lat="44.80724" lon="4.61568">
        <ele>205.86</ele>
        <time>2015-09-02T09:41:08Z</time>
      </trkpt>
      <trkpt lat="44.80728" lon="4.61571">
        <ele>205.38</ele>
        <time>2015-09-02T09:41:09Z</time>
      </trkpt>
      <trkpt lat="44.80792" lon="4.61626">
        <ele>205.38</ele>
        <time>2015-09-02T09:41:26Z</time>
      </trkpt>
      <trkpt lat="44.80809" lon="4.61638">
        <ele>205.38</ele>
        <time>2015-09-02T09:41:30Z</time>
      </trkpt>
      <trkpt lat="44.80813" lon="4.6164">
        <ele>205.38</ele>
        <time>2015-09-02T09:41:31Z</time>
      </trkpt>
      <trkpt lat="44.80822" lon="4.61646">
        <ele>205.38</ele>
        <time>2015-09-02T09:41:33Z</time>
      </trkpt>
      <trkpt lat="44.80879" lon="4.61661">
        <ele>205.38</ele>
        <time>2015-09-02T09:41:45Z</time>
      </trkpt>
      <trkpt lat="44.80883" lon="4.61662">
        <ele>205.38</ele>
        <time>2015-09-02T09:41:46Z</time>
      </trkpt>
      <trkpt lat="44.80888" lon="4.61662">
        <ele>205.38</ele>
        <time>2015-09-02T09:41:47Z</time>
      </trkpt>
      <trkpt lat="44.80893" lon="4.61662">
        <ele>205.38</ele>
        <time>2015-09-02T09:41:48Z</time>
      </trkpt>
      <trkpt lat="44.80897" lon="4.61662">
        <ele>205.38</ele>
        <time>2015-09-02T09:41:49Z</time>
      </trkpt>
      <trkpt lat="44.80902" lon="4.61662">
        <ele>205.38</ele>
        <time>2015-09-02T09:41:50Z</time>
      </trkpt>
      <trkpt lat="44.80907" lon="4.61663">
        <ele>205.38</ele>
        <time>2015-09-02T09:41:51Z</time>
      </trkpt>
      <trkpt lat="44.80975" lon="4.61671">
        <ele>205.38</ele>
        <time>2015-09-02T09:42:05Z</time>
      </trkpt>
      <trkpt lat="44.8098" lon="4.61672">
        <ele>205.38</ele>
        <time>2015-09-02T09:42:06Z</time>
      </trkpt>
      <trkpt lat="44.81054" lon="4.61713">
        <ele>204.9</ele>
        <time>2015-09-02T09:42:23Z</time>
      </trkpt>
      <trkpt lat="44.81112" lon="4.6174">
        <ele>205.38</ele>
        <time>2015-09-02T09:42:36Z</time>
      </trkpt>
      <trkpt lat="44.81172" lon="4.61758">
        <ele>205.38</ele>
        <time>2015-09-02T09:42:50Z</time>
      </trkpt>
      <trkpt lat="44.81189" lon="4.61761">
        <ele>204.9</ele>
        <time>2015-09-02T09:42:54Z</time>
      </trkpt>
      <trkpt lat="44.81248" lon="4.6178">
        <ele>205.38</ele>
        <time>2015-09-02T09:43:07Z</time>
      </trkpt>
      <trkpt lat="44.81252" lon="4.61782">
        <ele>204.9</ele>
        <time>2015-09-02T09:43:08Z</time>
      </trkpt>
      <trkpt lat="44.81256" lon="4.61785">
        <ele>204.9</ele>
        <time>2015-09-02T09:43:09Z</time>
      </trkpt>
      <trkpt lat="44.81313" lon="4.61837">
        <ele>204.42</ele>
        <time>2015-09-02T09:43:23Z</time>
      </trkpt>
      <trkpt lat="44.81377" lon="4.61922">
        <ele>203.94</ele>
        <time>2015-09-02T09:43:43Z</time>
      </trkpt>
      <trkpt lat="44.81438" lon="4.61961">
        <ele>203.46</ele>
        <time>2015-09-02T09:43:59Z</time>
      </trkpt>
      <trkpt lat="44.81514" lon="4.61997">
        <ele>203.46</ele>
        <time>2015-09-02T09:44:17Z</time>
      </trkpt>
      <trkpt lat="44.81566" lon="4.62037">
        <ele>202.49</ele>
        <time>2015-09-02T09:44:31Z</time>
      </trkpt>
      <trkpt lat="44.81584" lon="4.62045">
        <ele>203.46</ele>
        <time>2015-09-02T09:44:35Z</time>
      </trkpt>
      <trkpt lat="44.81652" lon="4.62047">
        <ele>204.42</ele>
        <time>2015-09-02T09:44:50Z</time>
      </trkpt>
      <trkpt lat="44.81729" lon="4.61995">
        <ele>204.42</ele>
        <time>2015-09-02T09:45:08Z</time>
      </trkpt>
      <trkpt lat="44.81741" lon="4.61986">
        <ele>204.42</ele>
        <time>2015-09-02T09:45:11Z</time>
      </trkpt>
      <trkpt lat="44.81745" lon="4.61983">
        <ele>204.42</ele>
        <time>2015-09-02T09:45:12Z</time>
      </trkpt>
      <trkpt lat="44.81811" lon="4.61956">
        <ele>204.9</ele>
        <time>2015-09-02T09:45:27Z</time>
      </trkpt>
      <trkpt lat="44.81881" lon="4.61957">
        <ele>204.9</ele>
        <time>2015-09-02T09:45:42Z</time>
      </trkpt>
      <trkpt lat="44.81943" lon="4.61934">
        <ele>204.9</ele>
        <time>2015-09-02T09:45:56Z</time>
      </trkpt>
      <trkpt lat="44.82003" lon="4.61884">
        <ele>204.9</ele>
        <time>2015-09-02T09:46:12Z</time>
      </trkpt>
      <trkpt lat="44.82049" lon="4.61863">
        <ele>204.9</ele>
        <time>2015-09-02T09:46:23Z</time>
      </trkpt>
      <trkpt lat="44.82062" lon="4.61856">
        <ele>204.9</ele>
        <time>2015-09-02T09:46:26Z</time>
      </trkpt>
      <trkpt lat="44.82074" lon="4.61849">
        <ele>204.9</ele>
        <time>2015-09-02T09:46:29Z</time>
      </trkpt>
      <trkpt lat="44.82078" lon="4.61847">
        <ele>204.9</ele>
        <time>2015-09-02T09:46:30Z</time>
      </trkpt>
      <trkpt lat="44.82082" lon="4.61844">
        <ele>204.9</ele>
        <time>2015-09-02T09:46:31Z</time>
      </trkpt>
      <trkpt lat="44.82137" lon="4.61775">
        <ele>205.38</ele>
        <time>2015-09-02T09:46:48Z</time>
      </trkpt>
      <trkpt lat="44.82155" lon="4.61735">
        <ele>205.38</ele>
        <time>2015-09-02T09:46:56Z</time>
      </trkpt>
      <trkpt lat="44.82157" lon="4.6173">
        <ele>205.38</ele>
        <time>2015-09-02T09:46:57Z</time>
      </trkpt>
      <trkpt lat="44.82173" lon="4.61632">
        <ele>205.86</ele>
        <time>2015-09-02T09:47:15Z</time>
      </trkpt>
      <trkpt lat="44.82168" lon="4.61537">
        <ele>206.34</ele>
        <time>2015-09-02T09:47:31Z</time>
      </trkpt>
      <trkpt lat="44.82169" lon="4.61484">
        <ele>206.34</ele>
        <time>2015-09-02T09:47:40Z</time>
      </trkpt>
      <trkpt lat="44.8217" lon="4.61478">
        <ele>206.34</ele>
        <time>2015-09-02T09:47:41Z</time>
      </trkpt>
      <trkpt lat="44.82172" lon="4.61466">
        <ele>206.34</ele>
        <time>2015-09-02T09:47:43Z</time>
      </trkpt>
      <trkpt lat="44.82179" lon="4.61439">
        <ele>205.86</ele>
        <time>2015-09-02T09:47:48Z</time>
      </trkpt>
      <trkpt lat="44.82181" lon="4.61433">
        <ele>205.86</ele>
        <time>2015-09-02T09:47:49Z</time>
      </trkpt>
      <trkpt lat="44.82218" lon="4.61351">
        <ele>205.86</ele>
        <time>2015-09-02T09:48:08Z</time>
      </trkpt>
      <trkpt lat="44.82232" lon="4.61303">
        <ele>205.86</ele>
        <time>2015-09-02T09:48:20Z</time>
      </trkpt>
      <trkpt lat="44.82238" lon="4.61219">
        <ele>207.3</ele>
        <time>2015-09-02T09:48:35Z</time>
      </trkpt>
      <trkpt lat="44.82249" lon="4.61148">
        <ele>206.82</ele>
        <time>2015-09-02T09:48:48Z</time>
      </trkpt>
      <trkpt lat="44.82264" lon="4.61065">
        <ele>206.82</ele>
        <time>2015-09-02T09:49:03Z</time>
      </trkpt>
      <trkpt lat="44.82282" lon="4.60981">
        <ele>206.82</ele>
        <time>2015-09-02T09:49:18Z</time>
      </trkpt>
      <trkpt lat="44.8229" lon="4.60919">
        <ele>207.3</ele>
        <time>2015-09-02T09:49:29Z</time>
      </trkpt>
      <trkpt lat="44.8229" lon="4.60913">
        <ele>207.78</ele>
        <time>2015-09-02T09:49:30Z</time>
      </trkpt>
      <trkpt lat="44.82287" lon="4.6084">
        <ele>208.26</ele>
        <time>2015-09-02T09:49:43Z</time>
      </trkpt>
      <trkpt lat="44.82283" lon="4.60761">
        <ele>208.74</ele>
        <time>2015-09-02T09:49:57Z</time>
      </trkpt>
      <trkpt lat="44.82275" lon="4.60691">
        <ele>209.22</ele>
        <time>2015-09-02T09:50:12Z</time>
      </trkpt>
      <trkpt lat="44.82236" lon="4.60621">
        <ele>210.19</ele>
        <time>2015-09-02T09:50:30Z</time>
      </trkpt>
      <trkpt lat="44.82178" lon="4.60582">
        <ele>210.19</ele>
        <time>2015-09-02T09:50:48Z</time>
      </trkpt>
      <trkpt lat="44.82135" lon="4.60526">
        <ele>211.15</ele>
        <time>2015-09-02T09:51:03Z</time>
      </trkpt>
      <trkpt lat="44.8209" lon="4.60461">
        <ele>212.11</ele>
        <time>2015-09-02T09:51:20Z</time>
      </trkpt>
      <trkpt lat="44.82051" lon="4.60391">
        <ele>212.59</ele>
        <time>2015-09-02T09:51:36Z</time>
      </trkpt>
      <trkpt lat="44.82019" lon="4.60308">
        <ele>213.07</ele>
        <time>2015-09-02T09:51:54Z</time>
      </trkpt>
      <trkpt lat="44.81994" lon="4.60241">
        <ele>214.03</ele>
        <time>2015-09-02T09:52:08Z</time>
      </trkpt>
      <trkpt lat="44.81954" lon="4.60155">
        <ele>214.03</ele>
        <time>2015-09-02T09:52:26Z</time>
      </trkpt>
      <trkpt lat="44.81923" lon="4.60084">
        <ele>214.51</ele>
        <time>2015-09-02T09:52:40Z</time>
      </trkpt>
      <trkpt lat="44.81921" lon="4.60078">
        <ele>214.51</ele>
        <time>2015-09-02T09:52:41Z</time>
      </trkpt>
      <trkpt lat="44.81916" lon="4.60054">
        <ele>214.51</ele>
        <time>2015-09-02T09:52:45Z</time>
      </trkpt>
      <trkpt lat="44.81915" lon="4.60048">
        <ele>214.51</ele>
        <time>2015-09-02T09:52:46Z</time>
      </trkpt>
      <trkpt lat="44.8191" lon="4.60003">
        <ele>214.51</ele>
        <time>2015-09-02T09:52:53Z</time>
      </trkpt>
      <trkpt lat="44.81903" lon="4.59928">
        <ele>214.51</ele>
        <time>2015-09-02T09:53:05Z</time>
      </trkpt>
      <trkpt lat="44.81901" lon="4.59922">
        <ele>214.51</ele>
        <time>2015-09-02T09:53:06Z</time>
      </trkpt>
      <trkpt lat="44.819" lon="4.59916">
        <ele>214.51</ele>
        <time>2015-09-02T09:53:07Z</time>
      </trkpt>
      <trkpt lat="44.81885" lon="4.59864">
        <ele>214.51</ele>
        <time>2015-09-02T09:53:16Z</time>
      </trkpt>
      <trkpt lat="44.81876" lon="4.59835">
        <ele>214.51</ele>
        <time>2015-09-02T09:53:21Z</time>
      </trkpt>
      <trkpt lat="44.81875" lon="4.5983">
        <ele>214.51</ele>
        <time>2015-09-02T09:53:22Z</time>
      </trkpt>
      <trkpt lat="44.81869" lon="4.5979">
        <ele>214.51</ele>
        <time>2015-09-02T09:53:29Z</time>
      </trkpt>
      <trkpt lat="44.81869" lon="4.59784">
        <ele>214.51</ele>
        <time>2015-09-02T09:53:30Z</time>
      </trkpt>
      <trkpt lat="44.81883" lon="4.59707">
        <ele>214.99</ele>
        <time>2015-09-02T09:53:45Z</time>
      </trkpt>
      <trkpt lat="44.81891" lon="4.59687">
        <ele>214.99</ele>
        <time>2015-09-02T09:53:49Z</time>
      </trkpt>
      <trkpt lat="44.81933" lon="4.59588">
        <ele>213.55</ele>
        <time>2015-09-02T09:54:08Z</time>
      </trkpt>
      <trkpt lat="44.81939" lon="4.59571">
        <ele>214.99</ele>
        <time>2015-09-02T09:54:11Z</time>
      </trkpt>
      <trkpt lat="44.8194" lon="4.59565">
        <ele>214.99</ele>
        <time>2015-09-02T09:54:12Z</time>
      </trkpt>
      <trkpt lat="44.8194" lon="4.5956">
        <ele>214.99</ele>
        <time>2015-09-02T09:54:13Z</time>
      </trkpt>
      <trkpt lat="44.81941" lon="4.59555">
        <ele>214.99</ele>
        <time>2015-09-02T09:54:14Z</time>
      </trkpt>
      <trkpt lat="44.81942" lon="4.59549">
        <ele>214.99</ele>
        <time>2015-09-02T09:54:15Z</time>
      </trkpt>
      <trkpt lat="44.81962" lon="4.59434">
        <ele>215.47</ele>
        <time>2015-09-02T09:54:35Z</time>
      </trkpt>
      <trkpt lat="44.81994" lon="4.59335">
        <ele>214.99</ele>
        <time>2015-09-02T09:54:52Z</time>
      </trkpt>
      <trkpt lat="44.82018" lon="4.59262">
        <ele>214.99</ele>
        <time>2015-09-02T09:55:05Z</time>
      </trkpt>
      <trkpt lat="44.82046" lon="4.59153">
        <ele>214.99</ele>
        <time>2015-09-02T09:55:23Z</time>
      </trkpt>
      <trkpt lat="44.82063" lon="4.59052">
        <ele>214.99</ele>
        <time>2015-09-02T09:55:39Z</time>
      </trkpt>
      <trkpt lat="44.82092" lon="4.58943">
        <ele>214.99</ele>
        <time>2015-09-02T09:55:57Z</time>
      </trkpt>
      <trkpt lat="44.82111" lon="4.58878">
        <ele>214.99</ele>
        <time>2015-09-02T09:56:08Z</time>
      </trkpt>
      <trkpt lat="44.82124" lon="4.58838">
        <ele>214.99</ele>
        <time>2015-09-02T09:56:15Z</time>
      </trkpt>
      <trkpt lat="44.82128" lon="4.58828">
        <ele>214.99</ele>
        <time>2015-09-02T09:56:17Z</time>
      </trkpt>
      <trkpt lat="44.82138" lon="4.5881">
        <ele>214.99</ele>
        <time>2015-09-02T09:56:21Z</time>
      </trkpt>
      <trkpt lat="44.82196" lon="4.58736">
        <ele>214.99</ele>
        <time>2015-09-02T09:56:38Z</time>
      </trkpt>
      <trkpt lat="44.82259" lon="4.58655">
        <ele>214.99</ele>
        <time>2015-09-02T09:56:56Z</time>
      </trkpt>
      <trkpt lat="44.82278" lon="4.58626">
        <ele>214.99</ele>
        <time>2015-09-02T09:57:02Z</time>
      </trkpt>
      <trkpt lat="44.82281" lon="4.58621">
        <ele>214.99</ele>
        <time>2015-09-02T09:57:03Z</time>
      </trkpt>
      <trkpt lat="44.82314" lon="4.58536">
        <ele>214.99</ele>
        <time>2015-09-02T09:57:17Z</time>
      </trkpt>
      <trkpt lat="44.82325" lon="4.58513">
        <ele>215.47</ele>
        <time>2015-09-02T09:57:21Z</time>
      </trkpt>
      <trkpt lat="44.82327" lon="4.58507">
        <ele>215.47</ele>
        <time>2015-09-02T09:57:22Z</time>
      </trkpt>
      <trkpt lat="44.82329" lon="4.58501">
        <ele>215.47</ele>
        <time>2015-09-02T09:57:23Z</time>
      </trkpt>
      <trkpt lat="44.8234" lon="4.58451">
        <ele>215.47</ele>
        <time>2015-09-02T09:57:31Z</time>
      </trkpt>
      <trkpt lat="44.82341" lon="4.58444">
        <ele>215.47</ele>
        <time>2015-09-02T09:57:32Z</time>
      </trkpt>
      <trkpt lat="44.82347" lon="4.58375">
        <ele>215.47</ele>
        <time>2015-09-02T09:57:43Z</time>
      </trkpt>
      <trkpt lat="44.82347" lon="4.58369">
        <ele>215.47</ele>
        <time>2015-09-02T09:57:44Z</time>
      </trkpt>
      <trkpt lat="44.82346" lon="4.58364">
        <ele>214.03</ele>
        <time>2015-09-02T09:57:45Z</time>
      </trkpt>
      <trkpt lat="44.82339" lon="4.58339">
        <ele>214.03</ele>
        <time>2015-09-02T09:57:49Z</time>
      </trkpt>
      <trkpt lat="44.82338" lon="4.58333">
        <ele>214.03</ele>
        <time>2015-09-02T09:57:50Z</time>
      </trkpt>
      <trkpt lat="44.82329" lon="4.58239">
        <ele>214.03</ele>
        <time>2015-09-02T09:58:05Z</time>
      </trkpt>
      <trkpt lat="44.82319" lon="4.58199">
        <ele>214.03</ele>
        <time>2015-09-02T09:58:15Z</time>
      </trkpt>
      <trkpt lat="44.82318" lon="4.5817">
        <ele>214.03</ele>
        <time>2015-09-02T09:58:20Z</time>
      </trkpt>
      <trkpt lat="44.82319" lon="4.58165">
        <ele>214.03</ele>
        <time>2015-09-02T09:58:21Z</time>
      </trkpt>
      <trkpt lat="44.82339" lon="4.58079">
        <ele>214.03</ele>
        <time>2015-09-02T09:58:38Z</time>
      </trkpt>
      <trkpt lat="44.82345" lon="4.58063">
        <ele>215.47</ele>
        <time>2015-09-02T09:58:48Z</time>
      </trkpt>
      <trkpt lat="44.82345" lon="4.58068">
        <ele>215.47</ele>
        <time>2015-09-02T09:59:15Z</time>
      </trkpt>
      <trkpt lat="44.82345" lon="4.58062">
        <ele>215.47</ele>
        <time>2015-09-02T09:59:58Z</time>
      </trkpt>
      <trkpt lat="44.82345" lon="4.58061">
        <ele>214.99</ele>
        <time>2015-09-02T10:00:31Z</time>
      </trkpt>
      <trkpt lat="44.82346" lon="4.58063">
        <ele>214.99</ele>
        <time>2015-09-02T10:01:00Z</time>
      </trkpt>
      <trkpt lat="44.82346" lon="4.58059">
        <ele>214.99</ele>
        <time>2015-09-02T10:01:23Z</time>
      </trkpt>
      <trkpt lat="44.82348" lon="4.58057">
        <ele>214.99</ele>
        <time>2015-09-02T10:01:25Z</time>
      </trkpt>
      <trkpt lat="44.82349" lon="4.58055">
        <ele>214.99</ele>
        <time>2015-09-02T10:01:26Z</time>
      </trkpt>
      <trkpt lat="44.8235" lon="4.58053">
        <ele>214.99</ele>
        <time>2015-09-02T10:01:27Z</time>
      </trkpt>
      <trkpt lat="44.82351" lon="4.58051">
        <ele>214.99</ele>
        <time>2015-09-02T10:01:28Z</time>
      </trkpt>
      <trkpt lat="44.82352" lon="4.58049">
        <ele>214.99</ele>
        <time>2015-09-02T10:01:29Z</time>
      </trkpt>
      <trkpt lat="44.82354" lon="4.58046">
        <ele>214.99</ele>
        <time>2015-09-02T10:01:30Z</time>
      </trkpt>
      <trkpt lat="44.8239" lon="4.58002">
        <ele>214.99</ele>
        <time>2015-09-02T10:01:45Z</time>
      </trkpt>
      <trkpt lat="44.82439" lon="4.57943">
        <ele>215.95</ele>
        <time>2015-09-02T10:02:03Z</time>
      </trkpt>
      <trkpt lat="44.82483" lon="4.57888">
        <ele>216.91</ele>
        <time>2015-09-02T10:02:19Z</time>
      </trkpt>
      <trkpt lat="44.82518" lon="4.57855">
        <ele>217.4</ele>
        <time>2015-09-02T10:02:31Z</time>
      </trkpt>
      <trkpt lat="44.82576" lon="4.57823">
        <ele>218.36</ele>
        <time>2015-09-02T10:02:48Z</time>
      </trkpt>
      <trkpt lat="44.82631" lon="4.57817">
        <ele>219.8</ele>
        <time>2015-09-02T10:03:03Z</time>
      </trkpt>
      <trkpt lat="44.82689" lon="4.57813">
        <ele>220.28</ele>
        <time>2015-09-02T10:03:18Z</time>
      </trkpt>
      <trkpt lat="44.82746" lon="4.57786">
        <ele>221.24</ele>
        <time>2015-09-02T10:03:34Z</time>
      </trkpt>
      <trkpt lat="44.82793" lon="4.57764">
        <ele>222.2</ele>
        <time>2015-09-02T10:03:48Z</time>
      </trkpt>
      <trkpt lat="44.82856" lon="4.57734">
        <ele>223.64</ele>
        <time>2015-09-02T10:04:05Z</time>
      </trkpt>
      <trkpt lat="44.8288" lon="4.57725">
        <ele>224.12</ele>
        <time>2015-09-02T10:04:16Z</time>
      </trkpt>
      <trkpt lat="44.82882" lon="4.57724">
        <ele>224.61</ele>
        <time>2015-09-02T10:04:27Z</time>
      </trkpt>
      <trkpt lat="44.82884" lon="4.57723">
        <ele>224.61</ele>
        <time>2015-09-02T10:04:28Z</time>
      </trkpt>
      <trkpt lat="44.82885" lon="4.57723">
        <ele>224.61</ele>
        <time>2015-09-02T10:04:29Z</time>
      </trkpt>
      <trkpt lat="44.82887" lon="4.57723">
        <ele>224.61</ele>
        <time>2015-09-02T10:04:30Z</time>
      </trkpt>
      <trkpt lat="44.82889" lon="4.57722">
        <ele>224.61</ele>
        <time>2015-09-02T10:04:31Z</time>
      </trkpt>
      <trkpt lat="44.82926" lon="4.57715">
        <ele>224.61</ele>
        <time>2015-09-02T10:04:43Z</time>
      </trkpt>
      <trkpt lat="44.82982" lon="4.57697">
        <ele>225.09</ele>
        <time>2015-09-02T10:04:57Z</time>
      </trkpt>
      <trkpt lat="44.83041" lon="4.57674">
        <ele>227.01</ele>
        <time>2015-09-02T10:05:13Z</time>
      </trkpt>
      <trkpt lat="44.83077" lon="4.57661">
        <ele>227.97</ele>
        <time>2015-09-02T10:05:26Z</time>
      </trkpt>
      <trkpt lat="44.83081" lon="4.5766">
        <ele>227.97</ele>
        <time>2015-09-02T10:05:27Z</time>
      </trkpt>
      <trkpt lat="44.83085" lon="4.57659">
        <ele>227.97</ele>
        <time>2015-09-02T10:05:28Z</time>
      </trkpt>
      <trkpt lat="44.83089" lon="4.57658">
        <ele>227.97</ele>
        <time>2015-09-02T10:05:29Z</time>
      </trkpt>
      <trkpt lat="44.83153" lon="4.57659">
        <ele>228.93</ele>
        <time>2015-09-02T10:05:46Z</time>
      </trkpt>
      <trkpt lat="44.8322" lon="4.57683">
        <ele>229.89</ele>
        <time>2015-09-02T10:06:05Z</time>
      </trkpt>
      <trkpt lat="44.83297" lon="4.57712">
        <ele>231.33</ele>
        <time>2015-09-02T10:06:27Z</time>
      </trkpt>
      <trkpt lat="44.83339" lon="4.57736">
        <ele>231.81</ele>
        <time>2015-09-02T10:06:41Z</time>
      </trkpt>
      <trkpt lat="44.8338" lon="4.57768">
        <ele>232.78</ele>
        <time>2015-09-02T10:06:54Z</time>
      </trkpt>
      <trkpt lat="44.83409" lon="4.57789">
        <ele>233.26</ele>
        <time>2015-09-02T10:07:02Z</time>
      </trkpt>
      <trkpt lat="44.83482" lon="4.57824">
        <ele>234.22</ele>
        <time>2015-09-02T10:07:20Z</time>
      </trkpt>
      <trkpt lat="44.83544" lon="4.5786">
        <ele>236.14</ele>
        <time>2015-09-02T10:07:37Z</time>
      </trkpt>
      <trkpt lat="44.83606" lon="4.57891">
        <ele>236.62</ele>
        <time>2015-09-02T10:07:54Z</time>
      </trkpt>
      <trkpt lat="44.83673" lon="4.57927">
        <ele>237.58</ele>
        <time>2015-09-02T10:08:12Z</time>
      </trkpt>
      <trkpt lat="44.83721" lon="4.5794">
        <ele>239.51</ele>
        <time>2015-09-02T10:08:26Z</time>
      </trkpt>
      <trkpt lat="44.83726" lon="4.57938">
        <ele>239.51</ele>
        <time>2015-09-02T10:08:36Z</time>
      </trkpt>
      <trkpt lat="44.83732" lon="4.57935">
        <ele>239.51</ele>
        <time>2015-09-02T10:08:49Z</time>
      </trkpt>
      <trkpt lat="44.83735" lon="4.57936">
        <ele>239.99</ele>
        <time>2015-09-02T10:09:10Z</time>
      </trkpt>
      <trkpt lat="44.83731" lon="4.57934">
        <ele>239.02</ele>
        <time>2015-09-02T10:09:38Z</time>
      </trkpt>
      <trkpt lat="44.83732" lon="4.57937">
        <ele>238.54</ele>
        <time>2015-09-02T10:10:08Z</time>
      </trkpt>
      <trkpt lat="44.83733" lon="4.57934">
        <ele>238.54</ele>
        <time>2015-09-02T10:10:29Z</time>
      </trkpt>
      <trkpt lat="44.83735" lon="4.57933">
        <ele>239.99</ele>
        <time>2015-09-02T10:10:33Z</time>
      </trkpt>
      <trkpt lat="44.83736" lon="4.57934">
        <ele>239.99</ele>
        <time>2015-09-02T10:10:40Z</time>
      </trkpt>
      <trkpt lat="44.83737" lon="4.57934">
        <ele>239.99</ele>
        <time>2015-09-02T10:10:41Z</time>
      </trkpt>
      <trkpt lat="44.83739" lon="4.57935">
        <ele>239.99</ele>
        <time>2015-09-02T10:10:42Z</time>
      </trkpt>
      <trkpt lat="44.8374" lon="4.57935">
        <ele>239.99</ele>
        <time>2015-09-02T10:10:43Z</time>
      </trkpt>
      <trkpt lat="44.83742" lon="4.57934">
        <ele>239.99</ele>
        <time>2015-09-02T10:10:44Z</time>
      </trkpt>
      <trkpt lat="44.83783" lon="4.57894">
        <ele>240.47</ele>
        <time>2015-09-02T10:11:01Z</time>
      </trkpt>
      <trkpt lat="44.83826" lon="4.57807">
        <ele>241.91</ele>
        <time>2015-09-02T10:11:22Z</time>
      </trkpt>
      <trkpt lat="44.83837" lon="4.57726">
        <ele>242.39</ele>
        <time>2015-09-02T10:11:38Z</time>
      </trkpt>
      <trkpt lat="44.83819" lon="4.57637">
        <ele>243.35</ele>
        <time>2015-09-02T10:11:54Z</time>
      </trkpt>
      <trkpt lat="44.8381" lon="4.57599">
        <ele>244.79</ele>
        <time>2015-09-02T10:12:04Z</time>
      </trkpt>
      <trkpt lat="44.83811" lon="4.576">
        <ele>244.79</ele>
        <time>2015-09-02T10:12:28Z</time>
      </trkpt>
      <trkpt lat="44.83813" lon="4.57596">
        <ele>244.79</ele>
        <time>2015-09-02T10:12:53Z</time>
      </trkpt>
      <trkpt lat="44.8381" lon="4.57595">
        <ele>245.27</ele>
        <time>2015-09-02T10:13:18Z</time>
      </trkpt>
      <trkpt lat="44.83807" lon="4.57595">
        <ele>244.79</ele>
        <time>2015-09-02T10:13:45Z</time>
      </trkpt>
      <trkpt lat="44.8381" lon="4.57594">
        <ele>245.27</ele>
        <time>2015-09-02T10:14:06Z</time>
      </trkpt>
      <trkpt lat="44.83811" lon="4.57592">
        <ele>245.27</ele>
        <time>2015-09-02T10:14:07Z</time>
      </trkpt>
      <trkpt lat="44.83816" lon="4.57557">
        <ele>245.27</ele>
        <time>2015-09-02T10:14:19Z</time>
      </trkpt>
      <trkpt lat="44.83827" lon="4.57523">
        <ele>245.75</ele>
        <time>2015-09-02T10:14:33Z</time>
      </trkpt>
      <trkpt lat="44.83852" lon="4.57489">
        <ele>245.75</ele>
        <time>2015-09-02T10:14:45Z</time>
      </trkpt>
      <trkpt lat="44.83891" lon="4.5747">
        <ele>246.23</ele>
        <time>2015-09-02T10:14:58Z</time>
      </trkpt>
      <trkpt lat="44.83942" lon="4.57481">
        <ele>246.23</ele>
        <time>2015-09-02T10:15:12Z</time>
      </trkpt>
      <trkpt lat="44.83961" lon="4.5749">
        <ele>244.79</ele>
        <time>2015-09-02T10:15:17Z</time>
      </trkpt>
      <trkpt lat="44.84013" lon="4.5752">
        <ele>246.23</ele>
        <time>2015-09-02T10:15:32Z</time>
      </trkpt>
      <trkpt lat="44.84059" lon="4.57534">
        <ele>246.23</ele>
        <time>2015-09-02T10:15:45Z</time>
      </trkpt>
      <trkpt lat="44.84113" lon="4.57513">
        <ele>244.31</ele>
        <time>2015-09-02T10:16:00Z</time>
      </trkpt>
      <trkpt lat="44.84167" lon="4.57472">
        <ele>245.75</ele>
        <time>2015-09-02T10:16:15Z</time>
      </trkpt>
      <trkpt lat="44.84219" lon="4.574">
        <ele>245.75</ele>
        <time>2015-09-02T10:16:33Z</time>
      </trkpt>
      <trkpt lat="44.84255" lon="4.57345">
        <ele>246.23</ele>
        <time>2015-09-02T10:16:48Z</time>
      </trkpt>
      <trkpt lat="44.84293" lon="4.57308">
        <ele>246.72</ele>
        <time>2015-09-02T10:17:03Z</time>
      </trkpt>
      <trkpt lat="44.84343" lon="4.57271">
        <ele>247.68</ele>
        <time>2015-09-02T10:17:19Z</time>
      </trkpt>
      <trkpt lat="44.84412" lon="4.5722">
        <ele>249.6</ele>
        <time>2015-09-02T10:17:39Z</time>
      </trkpt>
      <trkpt lat="44.84462" lon="4.5716">
        <ele>251.04</ele>
        <time>2015-09-02T10:17:56Z</time>
      </trkpt>
      <trkpt lat="44.84505" lon="4.57089">
        <ele>252</ele>
        <time>2015-09-02T10:18:13Z</time>
      </trkpt>
      <trkpt lat="44.84525" lon="4.57067">
        <ele>252</ele>
        <time>2015-09-02T10:18:19Z</time>
      </trkpt>
      <trkpt lat="44.84528" lon="4.57064">
        <ele>252</ele>
        <time>2015-09-02T10:18:20Z</time>
      </trkpt>
      <trkpt lat="44.84568" lon="4.5705">
        <ele>252</ele>
        <time>2015-09-02T10:18:31Z</time>
      </trkpt>
      <trkpt lat="44.84632" lon="4.57047">
        <ele>252.48</ele>
        <time>2015-09-02T10:18:47Z</time>
      </trkpt>
      <trkpt lat="44.847" lon="4.57021">
        <ele>252.96</ele>
        <time>2015-09-02T10:19:04Z</time>
      </trkpt>
      <trkpt lat="44.84747" lon="4.56999">
        <ele>253.44</ele>
        <time>2015-09-02T10:19:17Z</time>
      </trkpt>
      <trkpt lat="44.84798" lon="4.56976">
        <ele>253.44</ele>
        <time>2015-09-02T10:19:31Z</time>
      </trkpt>
      <trkpt lat="44.84857" lon="4.56946">
        <ele>254.41</ele>
        <time>2015-09-02T10:19:47Z</time>
      </trkpt>
      <trkpt lat="44.84905" lon="4.56927">
        <ele>254.41</ele>
        <time>2015-09-02T10:20:02Z</time>
      </trkpt>
      <trkpt lat="44.84964" lon="4.56942">
        <ele>254.41</ele>
        <time>2015-09-02T10:20:17Z</time>
      </trkpt>
      <trkpt lat="44.85023" lon="4.56979">
        <ele>255.37</ele>
        <time>2015-09-02T10:20:33Z</time>
      </trkpt>
      <trkpt lat="44.85074" lon="4.56978">
        <ele>255.85</ele>
        <time>2015-09-02T10:20:48Z</time>
      </trkpt>
      <trkpt lat="44.85121" lon="4.56937">
        <ele>256.33</ele>
        <time>2015-09-02T10:21:02Z</time>
      </trkpt>
      <trkpt lat="44.85172" lon="4.56878">
        <ele>257.29</ele>
        <time>2015-09-02T10:21:18Z</time>
      </trkpt>
      <trkpt lat="44.85218" lon="4.56822">
        <ele>258.25</ele>
        <time>2015-09-02T10:21:34Z</time>
      </trkpt>
      <trkpt lat="44.85236" lon="4.56785">
        <ele>258.25</ele>
        <time>2015-09-02T10:21:42Z</time>
      </trkpt>
      <trkpt lat="44.85247" lon="4.56746">
        <ele>258.73</ele>
        <time>2015-09-02T10:21:49Z</time>
      </trkpt>
      <trkpt lat="44.85249" lon="4.56646">
        <ele>259.69</ele>
        <time>2015-09-02T10:22:07Z</time>
      </trkpt>
      <trkpt lat="44.85246" lon="4.56568">
        <ele>260.65</ele>
        <time>2015-09-02T10:22:20Z</time>
      </trkpt>
      <trkpt lat="44.85272" lon="4.56501">
        <ele>260.65</ele>
        <time>2015-09-02T10:22:34Z</time>
      </trkpt>
      <trkpt lat="44.85302" lon="4.56452">
        <ele>261.62</ele>
        <time>2015-09-02T10:22:50Z</time>
      </trkpt>
      <trkpt lat="44.85316" lon="4.56405">
        <ele>261.62</ele>
        <time>2015-09-02T10:23:05Z</time>
      </trkpt>
      <trkpt lat="44.85321" lon="4.56394">
        <ele>261.62</ele>
        <time>2015-09-02T10:23:09Z</time>
      </trkpt>
      <trkpt lat="44.85321" lon="4.56391">
        <ele>261.62</ele>
        <time>2015-09-02T10:23:10Z</time>
      </trkpt>
      <trkpt lat="44.85321" lon="4.56388">
        <ele>261.62</ele>
        <time>2015-09-02T10:23:11Z</time>
      </trkpt>
      <trkpt lat="44.8532" lon="4.56363">
        <ele>261.62</ele>
        <time>2015-09-02T10:23:20Z</time>
      </trkpt>
      <trkpt lat="44.8532" lon="4.5636">
        <ele>261.62</ele>
        <time>2015-09-02T10:23:21Z</time>
      </trkpt>
      <trkpt lat="44.8532" lon="4.56356">
        <ele>261.62</ele>
        <time>2015-09-02T10:23:22Z</time>
      </trkpt>
      <trkpt lat="44.8532" lon="4.56353">
        <ele>261.62</ele>
        <time>2015-09-02T10:23:23Z</time>
      </trkpt>
      <trkpt lat="44.8532" lon="4.56349">
        <ele>262.1</ele>
        <time>2015-09-02T10:23:24Z</time>
      </trkpt>
      <trkpt lat="44.85331" lon="4.56289">
        <ele>262.1</ele>
        <time>2015-09-02T10:23:39Z</time>
      </trkpt>
      <trkpt lat="44.85359" lon="4.56247">
        <ele>263.06</ele>
        <time>2015-09-02T10:23:53Z</time>
      </trkpt>
      <trkpt lat="44.85385" lon="4.56225">
        <ele>263.54</ele>
        <time>2015-09-02T10:24:03Z</time>
      </trkpt>
      <trkpt lat="44.85437" lon="4.56228">
        <ele>264.02</ele>
        <time>2015-09-02T10:24:19Z</time>
      </trkpt>
      <trkpt lat="44.85488" lon="4.56247">
        <ele>264.98</ele>
        <time>2015-09-02T10:24:36Z</time>
      </trkpt>
      <trkpt lat="44.85538" lon="4.56282">
        <ele>265.94</ele>
        <time>2015-09-02T10:24:53Z</time>
      </trkpt>
      <trkpt lat="44.85581" lon="4.56305">
        <ele>266.42</ele>
        <time>2015-09-02T10:25:09Z</time>
      </trkpt>
      <trkpt lat="44.85638" lon="4.56303">
        <ele>268.35</ele>
        <time>2015-09-02T10:25:26Z</time>
      </trkpt>
      <trkpt lat="44.85684" lon="4.56264">
        <ele>268.83</ele>
        <time>2015-09-02T10:25:41Z</time>
      </trkpt>
      <trkpt lat="44.85722" lon="4.56187">
        <ele>270.27</ele>
        <time>2015-09-02T10:26:01Z</time>
      </trkpt>
      <trkpt lat="44.85765" lon="4.56149">
        <ele>270.75</ele>
        <time>2015-09-02T10:26:16Z</time>
      </trkpt>
      <trkpt lat="44.858" lon="4.56147">
        <ele>271.23</ele>
        <time>2015-09-02T10:26:29Z</time>
      </trkpt>
      <trkpt lat="44.85835" lon="4.56166">
        <ele>272.19</ele>
        <time>2015-09-02T10:26:40Z</time>
      </trkpt>
      <trkpt lat="44.85839" lon="4.56169">
        <ele>272.19</ele>
        <time>2015-09-02T10:26:41Z</time>
      </trkpt>
      <trkpt lat="44.85871" lon="4.56229">
        <ele>272.67</ele>
        <time>2015-09-02T10:26:53Z</time>
      </trkpt>
      <trkpt lat="44.85877" lon="4.56324">
        <ele>273.63</ele>
        <time>2015-09-02T10:27:12Z</time>
      </trkpt>
      <trkpt lat="44.85888" lon="4.56397">
        <ele>273.63</ele>
        <time>2015-09-02T10:27:27Z</time>
      </trkpt>
      <trkpt lat="44.85912" lon="4.56444">
        <ele>275.07</ele>
        <time>2015-09-02T10:27:39Z</time>
      </trkpt>
      <trkpt lat="44.85939" lon="4.56493">
        <ele>275.56</ele>
        <time>2015-09-02T10:27:54Z</time>
      </trkpt>
      <trkpt lat="44.85978" lon="4.56539">
        <ele>276.04</ele>
        <time>2015-09-02T10:28:08Z</time>
      </trkpt>
      <trkpt lat="44.86024" lon="4.56575">
        <ele>277</ele>
        <time>2015-09-02T10:28:21Z</time>
      </trkpt>
      <trkpt lat="44.86075" lon="4.56618">
        <ele>277.96</ele>
        <time>2015-09-02T10:28:36Z</time>
      </trkpt>
      <trkpt lat="44.86123" lon="4.56655">
        <ele>278.92</ele>
        <time>2015-09-02T10:28:50Z</time>
      </trkpt>
      <trkpt lat="44.86166" lon="4.56687">
        <ele>279.88</ele>
        <time>2015-09-02T10:29:03Z</time>
      </trkpt>
      <trkpt lat="44.86201" lon="4.5671">
        <ele>280.36</ele>
        <time>2015-09-02T10:29:14Z</time>
      </trkpt>
      <trkpt lat="44.86238" lon="4.56738">
        <ele>280.84</ele>
        <time>2015-09-02T10:29:25Z</time>
      </trkpt>
      <trkpt lat="44.86293" lon="4.56763">
        <ele>281.8</ele>
        <time>2015-09-02T10:29:38Z</time>
      </trkpt>
      <trkpt lat="44.86356" lon="4.56751">
        <ele>282.28</ele>
        <time>2015-09-02T10:29:55Z</time>
      </trkpt>
      <trkpt lat="44.864" lon="4.56692">
        <ele>282.77</ele>
        <time>2015-09-02T10:30:12Z</time>
      </trkpt>
      <trkpt lat="44.86425" lon="4.56623">
        <ele>282.77</ele>
        <time>2015-09-02T10:30:27Z</time>
      </trkpt>
      <trkpt lat="44.86432" lon="4.56537">
        <ele>283.73</ele>
        <time>2015-09-02T10:30:43Z</time>
      </trkpt>
      <trkpt lat="44.8641" lon="4.56444">
        <ele>283.73</ele>
        <time>2015-09-02T10:31:01Z</time>
      </trkpt>
      <trkpt lat="44.86395" lon="4.56379">
        <ele>283.73</ele>
        <time>2015-09-02T10:31:14Z</time>
      </trkpt>
      <trkpt lat="44.86384" lon="4.56318">
        <ele>283.73</ele>
        <time>2015-09-02T10:31:26Z</time>
      </trkpt>
      <trkpt lat="44.86392" lon="4.56229">
        <ele>284.21</ele>
        <time>2015-09-02T10:31:40Z</time>
      </trkpt>
      <trkpt lat="44.86398" lon="4.56163">
        <ele>285.17</ele>
        <time>2015-09-02T10:31:53Z</time>
      </trkpt>
      <trkpt lat="44.86394" lon="4.56084">
        <ele>283.73</ele>
        <time>2015-09-02T10:32:08Z</time>
      </trkpt>
      <trkpt lat="44.86392" lon="4.56053">
        <ele>285.17</ele>
        <time>2015-09-02T10:32:14Z</time>
      </trkpt>
      <trkpt lat="44.86395" lon="4.56022">
        <ele>283.73</ele>
        <time>2015-09-02T10:32:20Z</time>
      </trkpt>
      <trkpt lat="44.86399" lon="4.55993">
        <ele>284.69</ele>
        <time>2015-09-02T10:32:26Z</time>
      </trkpt>
      <trkpt lat="44.86414" lon="4.55895">
        <ele>285.65</ele>
        <time>2015-09-02T10:32:46Z</time>
      </trkpt>
      <trkpt lat="44.86421" lon="4.5582">
        <ele>285.65</ele>
        <time>2015-09-02T10:33:01Z</time>
      </trkpt>
      <trkpt lat="44.86408" lon="4.55734">
        <ele>287.57</ele>
        <time>2015-09-02T10:33:19Z</time>
      </trkpt>
      <trkpt lat="44.86393" lon="4.55673">
        <ele>289.01</ele>
        <time>2015-09-02T10:33:36Z</time>
      </trkpt>
      <trkpt lat="44.86372" lon="4.55609">
        <ele>289.01</ele>
        <time>2015-09-02T10:33:53Z</time>
      </trkpt>
      <trkpt lat="44.8636" lon="4.55543">
        <ele>289.49</ele>
        <time>2015-09-02T10:34:08Z</time>
      </trkpt>
      <trkpt lat="44.86361" lon="4.5547">
        <ele>291.42</ele>
        <time>2015-09-02T10:34:24Z</time>
      </trkpt>
      <trkpt lat="44.8639" lon="4.5539">
        <ele>290.94</ele>
        <time>2015-09-02T10:34:43Z</time>
      </trkpt>
      <trkpt lat="44.86427" lon="4.55344">
        <ele>291.42</ele>
        <time>2015-09-02T10:34:58Z</time>
      </trkpt>
      <trkpt lat="44.86481" lon="4.55325">
        <ele>292.86</ele>
        <time>2015-09-02T10:35:15Z</time>
      </trkpt>
      <trkpt lat="44.86525" lon="4.55344">
        <ele>294.3</ele>
        <time>2015-09-02T10:35:30Z</time>
      </trkpt>
      <trkpt lat="44.86574" lon="4.55404">
        <ele>294.3</ele>
        <time>2015-09-02T10:35:47Z</time>
      </trkpt>
      <trkpt lat="44.86627" lon="4.55468">
        <ele>295.26</ele>
        <time>2015-09-02T10:36:06Z</time>
      </trkpt>
      <trkpt lat="44.86686" lon="4.55535">
        <ele>296.22</ele>
        <time>2015-09-02T10:36:26Z</time>
      </trkpt>
      <trkpt lat="44.8673" lon="4.55553">
        <ele>297.18</ele>
        <time>2015-09-02T10:36:38Z</time>
      </trkpt>
      <trkpt lat="44.86801" lon="4.55555">
        <ele>298.63</ele>
        <time>2015-09-02T10:36:56Z</time>
      </trkpt>
      <trkpt lat="44.8685" lon="4.55526">
        <ele>299.59</ele>
        <time>2015-09-02T10:37:10Z</time>
      </trkpt>
      <trkpt lat="44.86869" lon="4.55503">
        <ele>300.07</ele>
        <time>2015-09-02T10:37:16Z</time>
      </trkpt>
      <trkpt lat="44.86915" lon="4.55431">
        <ele>300.07</ele>
        <time>2015-09-02T10:37:33Z</time>
      </trkpt>
      <trkpt lat="44.86951" lon="4.55375">
        <ele>300.55</ele>
        <time>2015-09-02T10:37:46Z</time>
      </trkpt>
      <trkpt lat="44.86954" lon="4.5537">
        <ele>300.55</ele>
        <time>2015-09-02T10:37:47Z</time>
      </trkpt>
      <trkpt lat="44.8696" lon="4.55362">
        <ele>300.55</ele>
        <time>2015-09-02T10:37:49Z</time>
      </trkpt>
      <trkpt lat="44.87023" lon="4.55316">
        <ele>301.51</ele>
        <time>2015-09-02T10:38:06Z</time>
      </trkpt>
      <trkpt lat="44.87062" lon="4.55299">
        <ele>301.99</ele>
        <time>2015-09-02T10:38:16Z</time>
      </trkpt>
      <trkpt lat="44.87107" lon="4.55271">
        <ele>302.95</ele>
        <time>2015-09-02T10:38:30Z</time>
      </trkpt>
      <trkpt lat="44.87145" lon="4.5521">
        <ele>303.43</ele>
        <time>2015-09-02T10:38:46Z</time>
      </trkpt>
      <trkpt lat="44.87173" lon="4.55158">
        <ele>303.91</ele>
        <time>2015-09-02T10:39:00Z</time>
      </trkpt>
      <trkpt lat="44.87213" lon="4.55075">
        <ele>304.88</ele>
        <time>2015-09-02T10:39:20Z</time>
      </trkpt>
      <trkpt lat="44.87261" lon="4.55013">
        <ele>305.84</ele>
        <time>2015-09-02T10:39:38Z</time>
      </trkpt>
      <trkpt lat="44.87313" lon="4.5498">
        <ele>306.8</ele>
        <time>2015-09-02T10:39:54Z</time>
      </trkpt>
      <trkpt lat="44.8739" lon="4.54934">
        <ele>308.24</ele>
        <time>2015-09-02T10:40:16Z</time>
      </trkpt>
      <trkpt lat="44.87432" lon="4.54871">
        <ele>308.72</ele>
        <time>2015-09-02T10:40:32Z</time>
      </trkpt>
      <trkpt lat="44.8747" lon="4.54804">
        <ele>310.64</ele>
        <time>2015-09-02T10:40:48Z</time>
      </trkpt>
      <trkpt lat="44.87499" lon="4.54721">
        <ele>311.12</ele>
        <time>2015-09-02T10:41:05Z</time>
      </trkpt>
      <trkpt lat="44.87524" lon="4.54648">
        <ele>312.09</ele>
        <time>2015-09-02T10:41:19Z</time>
      </trkpt>
      <trkpt lat="44.87528" lon="4.54613">
        <ele>312.57</ele>
        <time>2015-09-02T10:41:25Z</time>
      </trkpt>
      <trkpt lat="44.87516" lon="4.54513">
        <ele>313.53</ele>
        <time>2015-09-02T10:41:42Z</time>
      </trkpt>
      <trkpt lat="44.87497" lon="4.54428">
        <ele>313.53</ele>
        <time>2015-09-02T10:41:57Z</time>
      </trkpt>
      <trkpt lat="44.87481" lon="4.54364">
        <ele>313.53</ele>
        <time>2015-09-02T10:42:08Z</time>
      </trkpt>
      <trkpt lat="44.8748" lon="4.54357">
        <ele>313.53</ele>
        <time>2015-09-02T10:42:09Z</time>
      </trkpt>
      <trkpt lat="44.8746" lon="4.54265">
        <ele>313.53</ele>
        <time>2015-09-02T10:42:24Z</time>
      </trkpt>
      <trkpt lat="44.8745" lon="4.54192">
        <ele>314.01</ele>
        <time>2015-09-02T10:42:37Z</time>
      </trkpt>
      <trkpt lat="44.87457" lon="4.54143">
        <ele>313.53</ele>
        <time>2015-09-02T10:42:49Z</time>
      </trkpt>
      <trkpt lat="44.87456" lon="4.5414">
        <ele>313.53</ele>
        <time>2015-09-02T10:42:50Z</time>
      </trkpt>
      <trkpt lat="44.87456" lon="4.54137">
        <ele>313.53</ele>
        <time>2015-09-02T10:42:51Z</time>
      </trkpt>
      <trkpt lat="44.87454" lon="4.54135">
        <ele>313.53</ele>
        <time>2015-09-02T10:42:52Z</time>
      </trkpt>
      <trkpt lat="44.87453" lon="4.54132">
        <ele>313.53</ele>
        <time>2015-09-02T10:42:53Z</time>
      </trkpt>
      <trkpt lat="44.87452" lon="4.54129">
        <ele>313.53</ele>
        <time>2015-09-02T10:42:54Z</time>
      </trkpt>
      <trkpt lat="44.87449" lon="4.54125">
        <ele>314.49</ele>
        <time>2015-09-02T10:43:04Z</time>
      </trkpt>
      <trkpt lat="44.87452" lon="4.54127">
        <ele>314.49</ele>
        <time>2015-09-02T10:43:42Z</time>
      </trkpt>
      <trkpt lat="44.87448" lon="4.54128">
        <ele>314.49</ele>
        <time>2015-09-02T10:44:26Z</time>
      </trkpt>
      <trkpt lat="44.87452" lon="4.54123">
        <ele>314.49</ele>
        <time>2015-09-02T10:45:24Z</time>
      </trkpt>
      <trkpt lat="44.87452" lon="4.54119">
        <ele>314.49</ele>
        <time>2015-09-02T10:46:14Z</time>
      </trkpt>
      <trkpt lat="44.87451" lon="4.54123">
        <ele>314.49</ele>
        <time>2015-09-02T10:46:58Z</time>
      </trkpt>
      <trkpt lat="44.87452" lon="4.54124">
        <ele>314.01</ele>
        <time>2015-09-02T10:47:48Z</time>
      </trkpt>
      <trkpt lat="44.87449" lon="4.54123">
        <ele>314.01</ele>
        <time>2015-09-02T10:48:25Z</time>
      </trkpt>
      <trkpt lat="44.87449" lon="4.54123">
        <ele>314.01</ele>
        <time>2015-09-02T10:49:00Z</time>
      </trkpt>
      <trkpt lat="44.87447" lon="4.54125">
        <ele>314.49</ele>
        <time>2015-09-02T10:49:33Z</time>
      </trkpt>
      <trkpt lat="44.87449" lon="4.54126">
        <ele>314.49</ele>
        <time>2015-09-02T10:50:09Z</time>
      </trkpt>
      <trkpt lat="44.87451" lon="4.54128">
        <ele>314.49</ele>
        <time>2015-09-02T10:50:47Z</time>
      </trkpt>
      <trkpt lat="44.87446" lon="4.54123">
        <ele>314.49</ele>
        <time>2015-09-02T10:51:22Z</time>
      </trkpt>
      <trkpt lat="44.87447" lon="4.54125">
        <ele>314.49</ele>
        <time>2015-09-02T10:51:59Z</time>
      </trkpt>
      <trkpt lat="44.87445" lon="4.54125">
        <ele>314.97</ele>
        <time>2015-09-02T10:52:29Z</time>
      </trkpt>
      <trkpt lat="44.87443" lon="4.54129">
        <ele>315.45</ele>
        <time>2015-09-02T10:52:57Z</time>
      </trkpt>
      <trkpt lat="44.87447" lon="4.54129">
        <ele>316.41</ele>
        <time>2015-09-02T10:53:30Z</time>
      </trkpt>
      <trkpt lat="44.87447" lon="4.5413">
        <ele>317.37</ele>
        <time>2015-09-02T10:54:10Z</time>
      </trkpt>
      <trkpt lat="44.87443" lon="4.54128">
        <ele>317.85</ele>
        <time>2015-09-02T10:54:51Z</time>
      </trkpt>
      <trkpt lat="44.87448" lon="4.54124">
        <ele>318.33</ele>
        <time>2015-09-02T10:55:29Z</time>
      </trkpt>
      <trkpt lat="44.87447" lon="4.54125">
        <ele>318.81</ele>
        <time>2015-09-02T10:56:12Z</time>
      </trkpt>
      <trkpt lat="44.87445" lon="4.54124">
        <ele>318.81</ele>
        <time>2015-09-02T10:56:38Z</time>
      </trkpt>
      <trkpt lat="44.87443" lon="4.54124">
        <ele>319.78</ele>
        <time>2015-09-02T10:57:17Z</time>
      </trkpt>
      <trkpt lat="44.87444" lon="4.54129">
        <ele>320.26</ele>
        <time>2015-09-02T10:57:57Z</time>
      </trkpt>
      <trkpt lat="44.87443" lon="4.54128">
        <ele>319.78</ele>
        <time>2015-09-02T10:58:38Z</time>
      </trkpt>
      <trkpt lat="44.87442" lon="4.54126">
        <ele>319.78</ele>
        <time>2015-09-02T10:59:24Z</time>
      </trkpt>
      <trkpt lat="44.87447" lon="4.54126">
        <ele>319.78</ele>
        <time>2015-09-02T11:00:05Z</time>
      </trkpt>
      <trkpt lat="44.87447" lon="4.54126">
        <ele>319.3</ele>
        <time>2015-09-02T11:00:46Z</time>
      </trkpt>
      <trkpt lat="44.87449" lon="4.54126">
        <ele>319.3</ele>
        <time>2015-09-02T11:01:31Z</time>
      </trkpt>
      <trkpt lat="44.87452" lon="4.54122">
        <ele>319.3</ele>
        <time>2015-09-02T11:02:08Z</time>
      </trkpt>
      <trkpt lat="44.87449" lon="4.54122">
        <ele>319.3</ele>
        <time>2015-09-02T11:02:48Z</time>
      </trkpt>
      <trkpt lat="44.87447" lon="4.54125">
        <ele>317.85</ele>
        <time>2015-09-02T11:02:59Z</time>
      </trkpt>
      <trkpt lat="44.8745" lon="4.54123">
        <ele>317.37</ele>
        <time>2015-09-02T11:03:45Z</time>
      </trkpt>
      <trkpt lat="44.87448" lon="4.54121">
        <ele>317.37</ele>
        <time>2015-09-02T11:04:35Z</time>
      </trkpt>
      <trkpt lat="44.87446" lon="4.54123">
        <ele>316.89</ele>
        <time>2015-09-02T11:05:17Z</time>
      </trkpt>
      <trkpt lat="44.87451" lon="4.54119">
        <ele>316.89</ele>
        <time>2015-09-02T11:05:59Z</time>
      </trkpt>
      <trkpt lat="44.87447" lon="4.54125">
        <ele>316.41</ele>
        <time>2015-09-02T11:06:47Z</time>
      </trkpt>
      <trkpt lat="44.87449" lon="4.54124">
        <ele>316.41</ele>
        <time>2015-09-02T11:07:35Z</time>
      </trkpt>
      <trkpt lat="44.87443" lon="4.54125">
        <ele>316.41</ele>
        <time>2015-09-02T11:08:16Z</time>
      </trkpt>
      <trkpt lat="44.87452" lon="4.5412">
        <ele>317.37</ele>
        <time>2015-09-02T11:09:00Z</time>
      </trkpt>
      <trkpt lat="44.87455" lon="4.54118">
        <ele>316.89</ele>
        <time>2015-09-02T11:09:05Z</time>
      </trkpt>
      <trkpt lat="44.87461" lon="4.54092">
        <ele>316.89</ele>
        <time>2015-09-02T11:09:17Z</time>
      </trkpt>
      <trkpt lat="44.87473" lon="4.54045">
        <ele>316.89</ele>
        <time>2015-09-02T11:09:31Z</time>
      </trkpt>
      <trkpt lat="44.87475" lon="4.54038">
        <ele>315.45</ele>
        <time>2015-09-02T11:09:33Z</time>
      </trkpt>
      <trkpt lat="44.8751" lon="4.53978">
        <ele>315.45</ele>
        <time>2015-09-02T11:09:52Z</time>
      </trkpt>
      <trkpt lat="44.87528" lon="4.53965">
        <ele>316.89</ele>
        <time>2015-09-02T11:10:01Z</time>
      </trkpt>
      <trkpt lat="44.87565" lon="4.53945">
        <ele>316.41</ele>
        <time>2015-09-02T11:10:18Z</time>
      </trkpt>
      <trkpt lat="44.8759" lon="4.53925">
        <ele>317.37</ele>
        <time>2015-09-02T11:10:31Z</time>
      </trkpt>
      <trkpt lat="44.87589" lon="4.53925">
        <ele>317.85</ele>
        <time>2015-09-02T11:10:44Z</time>
      </trkpt>
      <trkpt lat="44.87597" lon="4.53918">
        <ele>317.37</ele>
        <time>2015-09-02T11:11:07Z</time>
      </trkpt>
      <trkpt lat="44.87631" lon="4.53877">
        <ele>317.37</ele>
        <time>2015-09-02T11:11:22Z</time>
      </trkpt>
      <trkpt lat="44.87675" lon="4.53822">
        <ele>319.3</ele>
        <time>2015-09-02T11:11:39Z</time>
      </trkpt>
      <trkpt lat="44.87688" lon="4.53806">
        <ele>319.78</ele>
        <time>2015-09-02T11:11:50Z</time>
      </trkpt>
      <trkpt lat="44.87698" lon="4.53794">
        <ele>319.78</ele>
        <time>2015-09-02T11:12:04Z</time>
      </trkpt>
      <trkpt lat="44.87733" lon="4.53751">
        <ele>320.26</ele>
        <time>2015-09-02T11:12:18Z</time>
      </trkpt>
      <trkpt lat="44.87773" lon="4.53703">
        <ele>321.22</ele>
        <time>2015-09-02T11:12:33Z</time>
      </trkpt>
      <trkpt lat="44.87802" lon="4.53636">
        <ele>322.18</ele>
        <time>2015-09-02T11:12:48Z</time>
      </trkpt>
      <trkpt lat="44.87831" lon="4.53549">
        <ele>323.62</ele>
        <time>2015-09-02T11:13:07Z</time>
      </trkpt>
      <trkpt lat="44.87847" lon="4.53467">
        <ele>325.06</ele>
        <time>2015-09-02T11:13:24Z</time>
      </trkpt>
      <trkpt lat="44.87864" lon="4.53373">
        <ele>325.54</ele>
        <time>2015-09-02T11:13:44Z</time>
      </trkpt>
      <trkpt lat="44.8788" lon="4.5329">
        <ele>326.99</ele>
        <time>2015-09-02T11:14:03Z</time>
      </trkpt>
      <trkpt lat="44.87893" lon="4.53211">
        <ele>328.43</ele>
        <time>2015-09-02T11:14:21Z</time>
      </trkpt>
      <trkpt lat="44.87921" lon="4.53153">
        <ele>329.87</ele>
        <time>2015-09-02T11:14:38Z</time>
      </trkpt>
      <trkpt lat="44.87952" lon="4.53129">
        <ele>329.39</ele>
        <time>2015-09-02T11:14:51Z</time>
      </trkpt>
      <trkpt lat="44.87986" lon="4.53129">
        <ele>329.39</ele>
        <time>2015-09-02T11:15:03Z</time>
      </trkpt>
      <trkpt lat="44.8802" lon="4.53143">
        <ele>330.83</ele>
        <time>2015-09-02T11:15:15Z</time>
      </trkpt>
      <trkpt lat="44.88023" lon="4.53144">
        <ele>331.31</ele>
        <time>2015-09-02T11:15:26Z</time>
      </trkpt>
      <trkpt lat="44.88029" lon="4.53151">
        <ele>331.31</ele>
        <time>2015-09-02T11:15:41Z</time>
      </trkpt>
      <trkpt lat="44.88061" lon="4.53188">
        <ele>331.79</ele>
        <time>2015-09-02T11:15:53Z</time>
      </trkpt>
      <trkpt lat="44.88093" lon="4.53212">
        <ele>332.75</ele>
        <time>2015-09-02T11:16:02Z</time>
      </trkpt>
      <trkpt lat="44.88106" lon="4.53216">
        <ele>332.75</ele>
        <time>2015-09-02T11:16:05Z</time>
      </trkpt>
      <trkpt lat="44.88162" lon="4.53204">
        <ele>333.23</ele>
        <time>2015-09-02T11:16:19Z</time>
      </trkpt>
      <trkpt lat="44.88201" lon="4.53148">
        <ele>334.2</ele>
        <time>2015-09-02T11:16:33Z</time>
      </trkpt>
      <trkpt lat="44.88212" lon="4.53112">
        <ele>332.75</ele>
        <time>2015-09-02T11:16:40Z</time>
      </trkpt>
      <trkpt lat="44.8822" lon="4.53078">
        <ele>334.2</ele>
        <time>2015-09-02T11:16:47Z</time>
      </trkpt>
      <trkpt lat="44.88238" lon="4.53012">
        <ele>333.71</ele>
        <time>2015-09-02T11:17:02Z</time>
      </trkpt>
      <trkpt lat="44.88263" lon="4.52923">
        <ele>335.16</ele>
        <time>2015-09-02T11:17:19Z</time>
      </trkpt>
      <trkpt lat="44.88296" lon="4.52841">
        <ele>336.12</ele>
        <time>2015-09-02T11:17:35Z</time>
      </trkpt>
      <trkpt lat="44.88328" lon="4.5276">
        <ele>336.6</ele>
        <time>2015-09-02T11:17:53Z</time>
      </trkpt>
      <trkpt lat="44.88355" lon="4.52673">
        <ele>338.04</ele>
        <time>2015-09-02T11:18:11Z</time>
      </trkpt>
      <trkpt lat="44.88352" lon="4.52584">
        <ele>339.48</ele>
        <time>2015-09-02T11:18:28Z</time>
      </trkpt>
      <trkpt lat="44.88328" lon="4.52522">
        <ele>339.96</ele>
        <time>2015-09-02T11:18:42Z</time>
      </trkpt>
      <trkpt lat="44.88276" lon="4.52467">
        <ele>340.44</ele>
        <time>2015-09-02T11:19:01Z</time>
      </trkpt>
      <trkpt lat="44.8822" lon="4.52442">
        <ele>340.92</ele>
        <time>2015-09-02T11:19:18Z</time>
      </trkpt>
      <trkpt lat="44.8817" lon="4.52411">
        <ele>341.41</ele>
        <time>2015-09-02T11:19:33Z</time>
      </trkpt>
      <trkpt lat="44.88139" lon="4.52346">
        <ele>342.37</ele>
        <time>2015-09-02T11:19:48Z</time>
      </trkpt>
      <trkpt lat="44.88141" lon="4.52271">
        <ele>342.85</ele>
        <time>2015-09-02T11:20:02Z</time>
      </trkpt>
      <trkpt lat="44.88172" lon="4.52201">
        <ele>343.33</ele>
        <time>2015-09-02T11:20:18Z</time>
      </trkpt>
      <trkpt lat="44.88207" lon="4.52135">
        <ele>343.81</ele>
        <time>2015-09-02T11:20:34Z</time>
      </trkpt>
      <trkpt lat="44.8825" lon="4.52058">
        <ele>344.77</ele>
        <time>2015-09-02T11:20:53Z</time>
      </trkpt>
      <trkpt lat="44.88291" lon="4.51981">
        <ele>345.25</ele>
        <time>2015-09-02T11:21:11Z</time>
      </trkpt>
      <trkpt lat="44.88329" lon="4.51911">
        <ele>346.21</ele>
        <time>2015-09-02T11:21:27Z</time>
      </trkpt>
      <trkpt lat="44.88372" lon="4.51847">
        <ele>346.69</ele>
        <time>2015-09-02T11:21:43Z</time>
      </trkpt>
      <trkpt lat="44.88421" lon="4.51798">
        <ele>348.13</ele>
        <time>2015-09-02T11:21:59Z</time>
      </trkpt>
      <trkpt lat="44.88467" lon="4.51736">
        <ele>348.13</ele>
        <time>2015-09-02T11:22:16Z</time>
      </trkpt>
      <trkpt lat="44.88488" lon="4.51653">
        <ele>348.13</ele>
        <time>2015-09-02T11:22:32Z</time>
      </trkpt>
      <trkpt lat="44.88486" lon="4.51555">
        <ele>349.1</ele>
        <time>2015-09-02T11:22:50Z</time>
      </trkpt>
      <trkpt lat="44.88471" lon="4.51515">
        <ele>349.58</ele>
        <time>2015-09-02T11:22:58Z</time>
      </trkpt>
      <trkpt lat="44.88461" lon="4.51498">
        <ele>349.58</ele>
        <time>2015-09-02T11:23:02Z</time>
      </trkpt>
      <trkpt lat="44.88405" lon="4.51454">
        <ele>350.06</ele>
        <time>2015-09-02T11:23:19Z</time>
      </trkpt>
      <trkpt lat="44.88353" lon="4.51459">
        <ele>350.54</ele>
        <time>2015-09-02T11:23:33Z</time>
      </trkpt>
      <trkpt lat="44.8829" lon="4.51487">
        <ele>351.02</ele>
        <time>2015-09-02T11:23:51Z</time>
      </trkpt>
      <trkpt lat="44.88231" lon="4.51512">
        <ele>351.5</ele>
        <time>2015-09-02T11:24:07Z</time>
      </trkpt>
      <trkpt lat="44.88175" lon="4.51502">
        <ele>351.98</ele>
        <time>2015-09-02T11:24:22Z</time>
      </trkpt>
      <trkpt lat="44.88135" lon="4.51448">
        <ele>352.46</ele>
        <time>2015-09-02T11:24:37Z</time>
      </trkpt>
      <trkpt lat="44.88124" lon="4.51371">
        <ele>352.46</ele>
        <time>2015-09-02T11:24:52Z</time>
      </trkpt>
      <trkpt lat="44.88154" lon="4.5129">
        <ele>353.42</ele>
        <time>2015-09-02T11:25:10Z</time>
      </trkpt>
      <trkpt lat="44.88203" lon="4.51235">
        <ele>353.9</ele>
        <time>2015-09-02T11:25:28Z</time>
      </trkpt>
      <trkpt lat="44.88253" lon="4.51179">
        <ele>355.83</ele>
        <time>2015-09-02T11:25:48Z</time>
      </trkpt>
      <trkpt lat="44.88287" lon="4.51143">
        <ele>355.83</ele>
        <time>2015-09-02T11:26:03Z</time>
      </trkpt>
      <trkpt lat="44.88338" lon="4.51118">
        <ele>356.79</ele>
        <time>2015-09-02T11:26:20Z</time>
      </trkpt>
      <trkpt lat="44.88396" lon="4.51112">
        <ele>358.23</ele>
        <time>2015-09-02T11:26:37Z</time>
      </trkpt>
      <trkpt lat="44.88464" lon="4.51104">
        <ele>359.19</ele>
        <time>2015-09-02T11:26:56Z</time>
      </trkpt>
      <trkpt lat="44.88527" lon="4.51096">
        <ele>359.67</ele>
        <time>2015-09-02T11:27:14Z</time>
      </trkpt>
      <trkpt lat="44.88586" lon="4.51091">
        <ele>360.63</ele>
        <time>2015-09-02T11:27:31Z</time>
      </trkpt>
      <trkpt lat="44.88642" lon="4.5108">
        <ele>361.59</ele>
        <time>2015-09-02T11:27:48Z</time>
      </trkpt>
      <trkpt lat="44.88703" lon="4.51055">
        <ele>363.04</ele>
        <time>2015-09-02T11:28:06Z</time>
      </trkpt>
      <trkpt lat="44.88761" lon="4.51032">
        <ele>364</ele>
        <time>2015-09-02T11:28:23Z</time>
      </trkpt>
      <trkpt lat="44.88822" lon="4.51006">
        <ele>364.96</ele>
        <time>2015-09-02T11:28:41Z</time>
      </trkpt>
      <trkpt lat="44.88879" lon="4.50971">
        <ele>365.92</ele>
        <time>2015-09-02T11:28:58Z</time>
      </trkpt>
      <trkpt lat="44.8893" lon="4.5093">
        <ele>367.36</ele>
        <time>2015-09-02T11:29:14Z</time>
      </trkpt>
      <trkpt lat="44.88988" lon="4.50884">
        <ele>368.32</ele>
        <time>2015-09-02T11:29:32Z</time>
      </trkpt>
      <trkpt lat="44.89031" lon="4.50841">
        <ele>369.28</ele>
        <time>2015-09-02T11:29:46Z</time>
      </trkpt>
      <trkpt lat="44.89066" lon="4.50802">
        <ele>371.21</ele>
        <time>2015-09-02T11:29:58Z</time>
      </trkpt>
      <trkpt lat="44.89111" lon="4.50764">
        <ele>371.69</ele>
        <time>2015-09-02T11:30:13Z</time>
      </trkpt>
      <trkpt lat="44.89145" lon="4.50713">
        <ele>371.69</ele>
        <time>2015-09-02T11:30:26Z</time>
      </trkpt>
      <trkpt lat="44.89157" lon="4.50645">
        <ele>372.65</ele>
        <time>2015-09-02T11:30:40Z</time>
      </trkpt>
      <trkpt lat="44.89155" lon="4.50577">
        <ele>373.13</ele>
        <time>2015-09-02T11:30:54Z</time>
      </trkpt>
      <trkpt lat="44.89141" lon="4.50503">
        <ele>374.09</ele>
        <time>2015-09-02T11:31:09Z</time>
      </trkpt>
      <trkpt lat="44.89105" lon="4.5045">
        <ele>375.05</ele>
        <time>2015-09-02T11:31:25Z</time>
      </trkpt>
      <trkpt lat="44.8904" lon="4.50379">
        <ele>376.01</ele>
        <time>2015-09-02T11:31:48Z</time>
      </trkpt>
      <trkpt lat="44.88993" lon="4.50309">
        <ele>376.49</ele>
        <time>2015-09-02T11:32:05Z</time>
      </trkpt>
      <trkpt lat="44.88944" lon="4.50236">
        <ele>376.49</ele>
        <time>2015-09-02T11:32:22Z</time>
      </trkpt>
      <trkpt lat="44.88906" lon="4.5015">
        <ele>376.97</ele>
        <time>2015-09-02T11:32:39Z</time>
      </trkpt>
      <trkpt lat="44.88886" lon="4.50044">
        <ele>377.45</ele>
        <time>2015-09-02T11:32:57Z</time>
      </trkpt>
      <trkpt lat="44.88879" lon="4.49952">
        <ele>377.94</ele>
        <time>2015-09-02T11:33:12Z</time>
      </trkpt>
      <trkpt lat="44.88871" lon="4.49836">
        <ele>378.9</ele>
        <time>2015-09-02T11:33:31Z</time>
      </trkpt>
      <trkpt lat="44.8888" lon="4.49779">
        <ele>379.86</ele>
        <time>2015-09-02T11:33:41Z</time>
      </trkpt>
      <trkpt lat="44.88907" lon="4.497">
        <ele>379.86</ele>
        <time>2015-09-02T11:33:56Z</time>
      </trkpt>
      <trkpt lat="44.88912" lon="4.49608">
        <ele>379.86</ele>
        <time>2015-09-02T11:34:12Z</time>
      </trkpt>
      <trkpt lat="44.88912" lon="4.49536">
        <ele>379.86</ele>
        <time>2015-09-02T11:34:27Z</time>
      </trkpt>
      <trkpt lat="44.88938" lon="4.49471">
        <ele>380.34</ele>
        <time>2015-09-02T11:34:44Z</time>
      </trkpt>
      <trkpt lat="44.88985" lon="4.49439">
        <ele>381.3</ele>
        <time>2015-09-02T11:35:00Z</time>
      </trkpt>
      <trkpt lat="44.89032" lon="4.49448">
        <ele>381.78</ele>
        <time>2015-09-02T11:35:14Z</time>
      </trkpt>
      <trkpt lat="44.89083" lon="4.49469">
        <ele>382.26</ele>
        <time>2015-09-02T11:35:29Z</time>
      </trkpt>
      <trkpt lat="44.89129" lon="4.49487">
        <ele>383.7</ele>
        <time>2015-09-02T11:35:43Z</time>
      </trkpt>
      <trkpt lat="44.89163" lon="4.4949">
        <ele>384.18</ele>
        <time>2015-09-02T11:35:54Z</time>
      </trkpt>
      <trkpt lat="44.89224" lon="4.49498">
        <ele>384.66</ele>
        <time>2015-09-02T11:36:11Z</time>
      </trkpt>
      <trkpt lat="44.89287" lon="4.49506">
        <ele>384.66</ele>
        <time>2015-09-02T11:36:27Z</time>
      </trkpt>
      <trkpt lat="44.89358" lon="4.49506">
        <ele>384.66</ele>
        <time>2015-09-02T11:36:45Z</time>
      </trkpt>
      <trkpt lat="44.89397" lon="4.49471">
        <ele>385.15</ele>
        <time>2015-09-02T11:36:58Z</time>
      </trkpt>
      <trkpt lat="44.894" lon="4.49464">
        <ele>385.15</ele>
        <time>2015-09-02T11:37:06Z</time>
      </trkpt>
      <trkpt lat="44.89402" lon="4.49458">
        <ele>385.63</ele>
        <time>2015-09-02T11:37:26Z</time>
      </trkpt>
      <trkpt lat="44.89413" lon="4.49415">
        <ele>385.63</ele>
        <time>2015-09-02T11:37:37Z</time>
      </trkpt>
      <trkpt lat="44.89411" lon="4.49345">
        <ele>385.63</ele>
        <time>2015-09-02T11:37:50Z</time>
      </trkpt>
      <trkpt lat="44.89394" lon="4.49306">
        <ele>386.11</ele>
        <time>2015-09-02T11:37:58Z</time>
      </trkpt>
      <trkpt lat="44.89383" lon="4.49286">
        <ele>386.11</ele>
        <time>2015-09-02T11:38:02Z</time>
      </trkpt>
      <trkpt lat="44.89367" lon="4.49253">
        <ele>386.59</ele>
        <time>2015-09-02T11:38:08Z</time>
      </trkpt>
      <trkpt lat="44.89365" lon="4.49247">
        <ele>386.59</ele>
        <time>2015-09-02T11:38:09Z</time>
      </trkpt>
      <trkpt lat="44.89363" lon="4.49241">
        <ele>386.59</ele>
        <time>2015-09-02T11:38:10Z</time>
      </trkpt>
      <trkpt lat="44.89362" lon="4.49235">
        <ele>386.59</ele>
        <time>2015-09-02T11:38:11Z</time>
      </trkpt>
      <trkpt lat="44.89361" lon="4.49229">
        <ele>386.59</ele>
        <time>2015-09-02T11:38:12Z</time>
      </trkpt>
      <trkpt lat="44.8936" lon="4.49224">
        <ele>386.59</ele>
        <time>2015-09-02T11:38:13Z</time>
      </trkpt>
      <trkpt lat="44.89359" lon="4.49218">
        <ele>386.59</ele>
        <time>2015-09-02T11:38:14Z</time>
      </trkpt>
      <trkpt lat="44.89359" lon="4.49212">
        <ele>386.59</ele>
        <time>2015-09-02T11:38:15Z</time>
      </trkpt>
      <trkpt lat="44.89353" lon="4.49098">
        <ele>388.03</ele>
        <time>2015-09-02T11:38:35Z</time>
      </trkpt>
      <trkpt lat="44.8943" lon="4.49071">
        <ele>388.03</ele>
        <time>2015-09-02T11:38:50Z</time>
      </trkpt>
      <trkpt lat="44.89472" lon="4.49071">
        <ele>389.47</ele>
        <time>2015-09-02T11:39:02Z</time>
      </trkpt>
      <trkpt lat="44.89528" lon="4.49085">
        <ele>389.47</ele>
        <time>2015-09-02T11:39:17Z</time>
      </trkpt>
      <trkpt lat="44.89594" lon="4.49077">
        <ele>389.95</ele>
        <time>2015-09-02T11:39:34Z</time>
      </trkpt>
      <trkpt lat="44.89642" lon="4.49039">
        <ele>390.43</ele>
        <time>2015-09-02T11:39:48Z</time>
      </trkpt>
      <trkpt lat="44.89664" lon="4.49004">
        <ele>391.87</ele>
        <time>2015-09-02T11:39:56Z</time>
      </trkpt>
      <trkpt lat="44.89666" lon="4.48999">
        <ele>391.87</ele>
        <time>2015-09-02T11:39:57Z</time>
      </trkpt>
      <trkpt lat="44.89684" lon="4.48934">
        <ele>391.87</ele>
        <time>2015-09-02T11:40:09Z</time>
      </trkpt>
      <trkpt lat="44.89689" lon="4.48856">
        <ele>392.36</ele>
        <time>2015-09-02T11:40:23Z</time>
      </trkpt>
      <trkpt lat="44.89705" lon="4.48795">
        <ele>392.84</ele>
        <time>2015-09-02T11:40:35Z</time>
      </trkpt>
      <trkpt lat="44.89707" lon="4.4879">
        <ele>392.84</ele>
        <time>2015-09-02T11:40:36Z</time>
      </trkpt>
      <trkpt lat="44.89726" lon="4.48764">
        <ele>392.84</ele>
        <time>2015-09-02T11:40:43Z</time>
      </trkpt>
      <trkpt lat="44.8973" lon="4.4876">
        <ele>392.84</ele>
        <time>2015-09-02T11:40:44Z</time>
      </trkpt>
      <trkpt lat="44.89778" lon="4.48737">
        <ele>393.8</ele>
        <time>2015-09-02T11:40:57Z</time>
      </trkpt>
      <trkpt lat="44.89822" lon="4.48748">
        <ele>394.76</ele>
        <time>2015-09-02T11:41:09Z</time>
      </trkpt>
      <trkpt lat="44.89879" lon="4.48754">
        <ele>395.24</ele>
        <time>2015-09-02T11:41:23Z</time>
      </trkpt>
      <trkpt lat="44.89926" lon="4.48722">
        <ele>396.2</ele>
        <time>2015-09-02T11:41:37Z</time>
      </trkpt>
      <trkpt lat="44.89951" lon="4.48676">
        <ele>396.2</ele>
        <time>2015-09-02T11:41:50Z</time>
      </trkpt>
      <trkpt lat="44.8998" lon="4.48621">
        <ele>397.16</ele>
        <time>2015-09-02T11:42:05Z</time>
      </trkpt>
      <trkpt lat="44.90025" lon="4.4855">
        <ele>397.64</ele>
        <time>2015-09-02T11:42:23Z</time>
      </trkpt>
      <trkpt lat="44.90069" lon="4.48525">
        <ele>398.12</ele>
        <time>2015-09-02T11:42:36Z</time>
      </trkpt>
      <trkpt lat="44.90115" lon="4.4853">
        <ele>398.6</ele>
        <time>2015-09-02T11:42:48Z</time>
      </trkpt>
      <trkpt lat="44.9016" lon="4.4857">
        <ele>398.6</ele>
        <time>2015-09-02T11:43:02Z</time>
      </trkpt>
      <trkpt lat="44.902" lon="4.48631">
        <ele>399.57</ele>
        <time>2015-09-02T11:43:17Z</time>
      </trkpt>
      <trkpt lat="44.90211" lon="4.48646">
        <ele>400.05</ele>
        <time>2015-09-02T11:43:21Z</time>
      </trkpt>
      <trkpt lat="44.90255" lon="4.48677">
        <ele>400.05</ele>
        <time>2015-09-02T11:43:34Z</time>
      </trkpt>
      <trkpt lat="44.90301" lon="4.48681">
        <ele>401.49</ele>
        <time>2015-09-02T11:43:47Z</time>
      </trkpt>
      <trkpt lat="44.90347" lon="4.48679">
        <ele>401.49</ele>
        <time>2015-09-02T11:44:00Z</time>
      </trkpt>
      <trkpt lat="44.90394" lon="4.48667">
        <ele>401.97</ele>
        <time>2015-09-02T11:44:12Z</time>
      </trkpt>
      <trkpt lat="44.9045" lon="4.48628">
        <ele>402.45</ele>
        <time>2015-09-02T11:44:27Z</time>
      </trkpt>
      <trkpt lat="44.90502" lon="4.48585">
        <ele>403.41</ele>
        <time>2015-09-02T11:44:42Z</time>
      </trkpt>
      <trkpt lat="44.90555" lon="4.48515">
        <ele>404.37</ele>
        <time>2015-09-02T11:45:00Z</time>
      </trkpt>
      <trkpt lat="44.90577" lon="4.48437">
        <ele>404.85</ele>
        <time>2015-09-02T11:45:15Z</time>
      </trkpt>
      <trkpt lat="44.90575" lon="4.48362">
        <ele>404.37</ele>
        <time>2015-09-02T11:45:31Z</time>
      </trkpt>
      <trkpt lat="44.9057" lon="4.48282">
        <ele>404.37</ele>
        <time>2015-09-02T11:45:48Z</time>
      </trkpt>
      <trkpt lat="44.90566" lon="4.48199">
        <ele>404.37</ele>
        <time>2015-09-02T11:46:04Z</time>
      </trkpt>
      <trkpt lat="44.90548" lon="4.4812">
        <ele>404.37</ele>
        <time>2015-09-02T11:46:19Z</time>
      </trkpt>
      <trkpt lat="44.90538" lon="4.48088">
        <ele>406.77</ele>
        <time>2015-09-02T11:46:27Z</time>
      </trkpt>
      <trkpt lat="44.90536" lon="4.48043">
        <ele>409.18</ele>
        <time>2015-09-02T11:46:40Z</time>
      </trkpt>
      <trkpt lat="44.9054" lon="4.47991">
        <ele>409.18</ele>
        <time>2015-09-02T11:46:52Z</time>
      </trkpt>
      <trkpt lat="44.90542" lon="4.47985">
        <ele>409.18</ele>
        <time>2015-09-02T11:46:53Z</time>
      </trkpt>
      <trkpt lat="44.90544" lon="4.47979">
        <ele>408.22</ele>
        <time>2015-09-02T11:46:54Z</time>
      </trkpt>
      <trkpt lat="44.90546" lon="4.47973">
        <ele>408.22</ele>
        <time>2015-09-02T11:46:55Z</time>
      </trkpt>
      <trkpt lat="44.90557" lon="4.47953">
        <ele>406.29</ele>
        <time>2015-09-02T11:46:58Z</time>
      </trkpt>
      <trkpt lat="44.90572" lon="4.47933">
        <ele>405.81</ele>
        <time>2015-09-02T11:47:01Z</time>
      </trkpt>
      <trkpt lat="44.90578" lon="4.47927">
        <ele>405.81</ele>
        <time>2015-09-02T11:47:02Z</time>
      </trkpt>
      <trkpt lat="44.90583" lon="4.47923">
        <ele>405.81</ele>
        <time>2015-09-02T11:47:03Z</time>
      </trkpt>
      <trkpt lat="44.9061" lon="4.47908">
        <ele>407.26</ele>
        <time>2015-09-02T11:47:08Z</time>
      </trkpt>
      <trkpt lat="44.90652" lon="4.47888">
        <ele>408.22</ele>
        <time>2015-09-02T11:47:17Z</time>
      </trkpt>
      <trkpt lat="44.90705" lon="4.47826">
        <ele>407.74</ele>
        <time>2015-09-02T11:47:33Z</time>
      </trkpt>
      <trkpt lat="44.9076" lon="4.47753">
        <ele>409.66</ele>
        <time>2015-09-02T11:47:50Z</time>
      </trkpt>
      <trkpt lat="44.90777" lon="4.47717">
        <ele>409.66</ele>
        <time>2015-09-02T11:47:56Z</time>
      </trkpt>
      <trkpt lat="44.9078" lon="4.4771">
        <ele>409.66</ele>
        <time>2015-09-02T11:47:57Z</time>
      </trkpt>
      <trkpt lat="44.90811" lon="4.47604">
        <ele>411.58</ele>
        <time>2015-09-02T11:48:14Z</time>
      </trkpt>
      <trkpt lat="44.90842" lon="4.47497">
        <ele>413.02</ele>
        <time>2015-09-02T11:48:32Z</time>
      </trkpt>
      <trkpt lat="44.90857" lon="4.47408">
        <ele>414.47</ele>
        <time>2015-09-02T11:48:47Z</time>
      </trkpt>
      <trkpt lat="44.90858" lon="4.47324">
        <ele>416.87</ele>
        <time>2015-09-02T11:49:01Z</time>
      </trkpt>
      <trkpt lat="44.90861" lon="4.4731">
        <ele>416.87</ele>
        <time>2015-09-02T11:49:03Z</time>
      </trkpt>
      <trkpt lat="44.90869" lon="4.47282">
        <ele>415.43</ele>
        <time>2015-09-02T11:49:07Z</time>
      </trkpt>
      <trkpt lat="44.90874" lon="4.47268">
        <ele>415.43</ele>
        <time>2015-09-02T11:49:09Z</time>
      </trkpt>
      <trkpt lat="44.90894" lon="4.47224">
        <ele>415.43</ele>
        <time>2015-09-02T11:49:17Z</time>
      </trkpt>
      <trkpt lat="44.90895" lon="4.47218">
        <ele>416.87</ele>
        <time>2015-09-02T11:49:18Z</time>
      </trkpt>
      <trkpt lat="44.90896" lon="4.47213">
        <ele>416.87</ele>
        <time>2015-09-02T11:49:19Z</time>
      </trkpt>
      <trkpt lat="44.90898" lon="4.47208">
        <ele>416.87</ele>
        <time>2015-09-02T11:49:20Z</time>
      </trkpt>
      <trkpt lat="44.909" lon="4.47202">
        <ele>416.87</ele>
        <time>2015-09-02T11:49:21Z</time>
      </trkpt>
      <trkpt lat="44.90907" lon="4.47187">
        <ele>416.87</ele>
        <time>2015-09-02T11:49:24Z</time>
      </trkpt>
      <trkpt lat="44.90909" lon="4.47183">
        <ele>417.35</ele>
        <time>2015-09-02T11:49:25Z</time>
      </trkpt>
      <trkpt lat="44.90912" lon="4.47179">
        <ele>417.35</ele>
        <time>2015-09-02T11:49:26Z</time>
      </trkpt>
      <trkpt lat="44.90915" lon="4.47174">
        <ele>417.35</ele>
        <time>2015-09-02T11:49:27Z</time>
      </trkpt>
      <trkpt lat="44.90918" lon="4.4717">
        <ele>417.35</ele>
        <time>2015-09-02T11:49:28Z</time>
      </trkpt>
      <trkpt lat="44.90961" lon="4.47084">
        <ele>418.79</ele>
        <time>2015-09-02T11:49:45Z</time>
      </trkpt>
      <trkpt lat="44.91" lon="4.47001">
        <ele>420.71</ele>
        <time>2015-09-02T11:50:01Z</time>
      </trkpt>
      <trkpt lat="44.91062" lon="4.4692">
        <ele>421.19</ele>
        <time>2015-09-02T11:50:19Z</time>
      </trkpt>
      <trkpt lat="44.91105" lon="4.4688">
        <ele>419.75</ele>
        <time>2015-09-02T11:50:30Z</time>
      </trkpt>
      <trkpt lat="44.91109" lon="4.46876">
        <ele>419.75</ele>
        <time>2015-09-02T11:50:31Z</time>
      </trkpt>
      <trkpt lat="44.91157" lon="4.4683">
        <ele>419.27</ele>
        <time>2015-09-02T11:50:44Z</time>
      </trkpt>
      <trkpt lat="44.91174" lon="4.46816">
        <ele>420.23</ele>
        <time>2015-09-02T11:50:48Z</time>
      </trkpt>
      <trkpt lat="44.91193" lon="4.46793">
        <ele>420.23</ele>
        <time>2015-09-02T11:50:53Z</time>
      </trkpt>
      <trkpt lat="44.91196" lon="4.46787">
        <ele>420.23</ele>
        <time>2015-09-02T11:50:54Z</time>
      </trkpt>
      <trkpt lat="44.91214" lon="4.46739">
        <ele>420.23</ele>
        <time>2015-09-02T11:51:02Z</time>
      </trkpt>
      <trkpt lat="44.91219" lon="4.46652">
        <ele>420.23</ele>
        <time>2015-09-02T11:51:16Z</time>
      </trkpt>
      <trkpt lat="44.91219" lon="4.46626">
        <ele>420.23</ele>
        <time>2015-09-02T11:51:20Z</time>
      </trkpt>
      <trkpt lat="44.91219" lon="4.46619">
        <ele>420.23</ele>
        <time>2015-09-02T11:51:21Z</time>
      </trkpt>
      <trkpt lat="44.9122" lon="4.46613">
        <ele>420.23</ele>
        <time>2015-09-02T11:51:22Z</time>
      </trkpt>
      <trkpt lat="44.91222" lon="4.46607">
        <ele>420.23</ele>
        <time>2015-09-02T11:51:23Z</time>
      </trkpt>
      <trkpt lat="44.91223" lon="4.46601">
        <ele>420.71</ele>
        <time>2015-09-02T11:51:24Z</time>
      </trkpt>
      <trkpt lat="44.91227" lon="4.46577">
        <ele>421.19</ele>
        <time>2015-09-02T11:51:28Z</time>
      </trkpt>
      <trkpt lat="44.91232" lon="4.46559">
        <ele>422.16</ele>
        <time>2015-09-02T11:51:31Z</time>
      </trkpt>
      <trkpt lat="44.91233" lon="4.46554">
        <ele>422.64</ele>
        <time>2015-09-02T11:51:32Z</time>
      </trkpt>
      <trkpt lat="44.91232" lon="4.46477">
        <ele>423.6</ele>
        <time>2015-09-02T11:51:46Z</time>
      </trkpt>
      <trkpt lat="44.91228" lon="4.46407">
        <ele>423.6</ele>
        <time>2015-09-02T11:51:57Z</time>
      </trkpt>
      <trkpt lat="44.91226" lon="4.46401">
        <ele>423.6</ele>
        <time>2015-09-02T11:51:58Z</time>
      </trkpt>
      <trkpt lat="44.91223" lon="4.46387">
        <ele>422.16</ele>
        <time>2015-09-02T11:52:00Z</time>
      </trkpt>
      <trkpt lat="44.9122" lon="4.46381">
        <ele>421.68</ele>
        <time>2015-09-02T11:52:01Z</time>
      </trkpt>
      <trkpt lat="44.91217" lon="4.46374">
        <ele>421.19</ele>
        <time>2015-09-02T11:52:02Z</time>
      </trkpt>
      <trkpt lat="44.91214" lon="4.46367">
        <ele>421.19</ele>
        <time>2015-09-02T11:52:03Z</time>
      </trkpt>
      <trkpt lat="44.91209" lon="4.46352">
        <ele>420.23</ele>
        <time>2015-09-02T11:52:05Z</time>
      </trkpt>
      <trkpt lat="44.91207" lon="4.46344">
        <ele>419.75</ele>
        <time>2015-09-02T11:52:06Z</time>
      </trkpt>
      <trkpt lat="44.91206" lon="4.46336">
        <ele>419.75</ele>
        <time>2015-09-02T11:52:07Z</time>
      </trkpt>
      <trkpt lat="44.91205" lon="4.46328">
        <ele>419.75</ele>
        <time>2015-09-02T11:52:08Z</time>
      </trkpt>
      <trkpt lat="44.91204" lon="4.4632">
        <ele>419.75</ele>
        <time>2015-09-02T11:52:09Z</time>
      </trkpt>
      <trkpt lat="44.91204" lon="4.46298">
        <ele>421.19</ele>
        <time>2015-09-02T11:52:12Z</time>
      </trkpt>
      <trkpt lat="44.91206" lon="4.46252">
        <ele>421.19</ele>
        <time>2015-09-02T11:52:19Z</time>
      </trkpt>
      <trkpt lat="44.91213" lon="4.46222">
        <ele>421.19</ele>
        <time>2015-09-02T11:52:24Z</time>
      </trkpt>
      <trkpt lat="44.91262" lon="4.46151">
        <ele>421.68</ele>
        <time>2015-09-02T11:52:39Z</time>
      </trkpt>
      <trkpt lat="44.91325" lon="4.46087">
        <ele>421.68</ele>
        <time>2015-09-02T11:52:55Z</time>
      </trkpt>
      <trkpt lat="44.91335" lon="4.46063">
        <ele>421.68</ele>
        <time>2015-09-02T11:52:59Z</time>
      </trkpt>
      <trkpt lat="44.91342" lon="4.4603">
        <ele>421.68</ele>
        <time>2015-09-02T11:53:04Z</time>
      </trkpt>
      <trkpt lat="44.91343" lon="4.46023">
        <ele>421.68</ele>
        <time>2015-09-02T11:53:05Z</time>
      </trkpt>
      <trkpt lat="44.91342" lon="4.45989">
        <ele>422.16</ele>
        <time>2015-09-02T11:53:10Z</time>
      </trkpt>
      <trkpt lat="44.91337" lon="4.45963">
        <ele>422.16</ele>
        <time>2015-09-02T11:53:14Z</time>
      </trkpt>
      <trkpt lat="44.91329" lon="4.45942">
        <ele>422.16</ele>
        <time>2015-09-02T11:53:18Z</time>
      </trkpt>
      <trkpt lat="44.91304" lon="4.45897">
        <ele>422.64</ele>
        <time>2015-09-02T11:53:28Z</time>
      </trkpt>
      <trkpt lat="44.91288" lon="4.45853">
        <ele>422.64</ele>
        <time>2015-09-02T11:53:36Z</time>
      </trkpt>
      <trkpt lat="44.91284" lon="4.45833">
        <ele>422.64</ele>
        <time>2015-09-02T11:53:39Z</time>
      </trkpt>
      <trkpt lat="44.91287" lon="4.45744">
        <ele>422.64</ele>
        <time>2015-09-02T11:53:53Z</time>
      </trkpt>
      <trkpt lat="44.91291" lon="4.45726">
        <ele>422.64</ele>
        <time>2015-09-02T11:53:56Z</time>
      </trkpt>
      <trkpt lat="44.91292" lon="4.4572">
        <ele>422.64</ele>
        <time>2015-09-02T11:53:57Z</time>
      </trkpt>
      <trkpt lat="44.91294" lon="4.45714">
        <ele>422.64</ele>
        <time>2015-09-02T11:53:58Z</time>
      </trkpt>
      <trkpt lat="44.91295" lon="4.45708">
        <ele>422.64</ele>
        <time>2015-09-02T11:53:59Z</time>
      </trkpt>
      <trkpt lat="44.91296" lon="4.45701">
        <ele>422.64</ele>
        <time>2015-09-02T11:54:00Z</time>
      </trkpt>
      <trkpt lat="44.91297" lon="4.45695">
        <ele>422.64</ele>
        <time>2015-09-02T11:54:01Z</time>
      </trkpt>
      <trkpt lat="44.91297" lon="4.45688">
        <ele>422.64</ele>
        <time>2015-09-02T11:54:02Z</time>
      </trkpt>
      <trkpt lat="44.91314" lon="4.456">
        <ele>423.12</ele>
        <time>2015-09-02T11:54:16Z</time>
      </trkpt>
      <trkpt lat="44.91308" lon="4.45509">
        <ele>423.6</ele>
        <time>2015-09-02T11:54:30Z</time>
      </trkpt>
      <trkpt lat="44.91303" lon="4.45471">
        <ele>424.08</ele>
        <time>2015-09-02T11:54:36Z</time>
      </trkpt>
      <trkpt lat="44.91306" lon="4.45432">
        <ele>424.08</ele>
        <time>2015-09-02T11:54:42Z</time>
      </trkpt>
      <trkpt lat="44.91318" lon="4.45357">
        <ele>425.04</ele>
        <time>2015-09-02T11:54:55Z</time>
      </trkpt>
      <trkpt lat="44.91324" lon="4.45335">
        <ele>425.52</ele>
        <time>2015-09-02T11:54:59Z</time>
      </trkpt>
      <trkpt lat="44.9133" lon="4.4531">
        <ele>425.52</ele>
        <time>2015-09-02T11:55:03Z</time>
      </trkpt>
      <trkpt lat="44.91332" lon="4.45304">
        <ele>426</ele>
        <time>2015-09-02T11:55:04Z</time>
      </trkpt>
      <trkpt lat="44.91355" lon="4.45263">
        <ele>426</ele>
        <time>2015-09-02T11:55:12Z</time>
      </trkpt>
      <trkpt lat="44.91358" lon="4.45258">
        <ele>426</ele>
        <time>2015-09-02T11:55:13Z</time>
      </trkpt>
      <trkpt lat="44.91361" lon="4.45253">
        <ele>426</ele>
        <time>2015-09-02T11:55:14Z</time>
      </trkpt>
      <trkpt lat="44.91365" lon="4.45248">
        <ele>426</ele>
        <time>2015-09-02T11:55:15Z</time>
      </trkpt>
      <trkpt lat="44.91368" lon="4.45244">
        <ele>426</ele>
        <time>2015-09-02T11:55:16Z</time>
      </trkpt>
      <trkpt lat="44.91372" lon="4.45239">
        <ele>426</ele>
        <time>2015-09-02T11:55:17Z</time>
      </trkpt>
      <trkpt lat="44.91375" lon="4.45234">
        <ele>426</ele>
        <time>2015-09-02T11:55:18Z</time>
      </trkpt>
      <trkpt lat="44.91411" lon="4.4514">
        <ele>426</ele>
        <time>2015-09-02T11:55:34Z</time>
      </trkpt>
      <trkpt lat="44.91413" lon="4.45134">
        <ele>426</ele>
        <time>2015-09-02T11:55:35Z</time>
      </trkpt>
      <trkpt lat="44.91421" lon="4.45111">
        <ele>426</ele>
        <time>2015-09-02T11:55:39Z</time>
      </trkpt>
      <trkpt lat="44.91424" lon="4.45105">
        <ele>426</ele>
        <time>2015-09-02T11:55:40Z</time>
      </trkpt>
      <trkpt lat="44.91447" lon="4.45053">
        <ele>426.48</ele>
        <time>2015-09-02T11:55:49Z</time>
      </trkpt>
      <trkpt lat="44.9145" lon="4.45048">
        <ele>426.48</ele>
        <time>2015-09-02T11:55:50Z</time>
      </trkpt>
      <trkpt lat="44.91489" lon="4.44981">
        <ele>426.48</ele>
        <time>2015-09-02T11:56:04Z</time>
      </trkpt>
      <trkpt lat="44.91492" lon="4.44977">
        <ele>426.48</ele>
        <time>2015-09-02T11:56:05Z</time>
      </trkpt>
      <trkpt lat="44.91515" lon="4.44955">
        <ele>426.48</ele>
        <time>2015-09-02T11:56:11Z</time>
      </trkpt>
      <trkpt lat="44.91568" lon="4.44879">
        <ele>426.96</ele>
        <time>2015-09-02T11:56:27Z</time>
      </trkpt>
      <trkpt lat="44.91571" lon="4.44874">
        <ele>426.96</ele>
        <time>2015-09-02T11:56:28Z</time>
      </trkpt>
      <trkpt lat="44.91577" lon="4.44864">
        <ele>426.96</ele>
        <time>2015-09-02T11:56:30Z</time>
      </trkpt>
      <trkpt lat="44.91622" lon="4.44771">
        <ele>426.96</ele>
        <time>2015-09-02T11:56:46Z</time>
      </trkpt>
      <trkpt lat="44.91633" lon="4.44671">
        <ele>427.44</ele>
        <time>2015-09-02T11:57:00Z</time>
      </trkpt>
      <trkpt lat="44.91638" lon="4.44593">
        <ele>426.96</ele>
        <time>2015-09-02T11:57:11Z</time>
      </trkpt>
      <trkpt lat="44.9164" lon="4.44586">
        <ele>427.44</ele>
        <time>2015-09-02T11:57:12Z</time>
      </trkpt>
      <trkpt lat="44.91666" lon="4.44491">
        <ele>427.44</ele>
        <time>2015-09-02T11:57:27Z</time>
      </trkpt>
      <trkpt lat="44.91667" lon="4.44484">
        <ele>427.44</ele>
        <time>2015-09-02T11:57:28Z</time>
      </trkpt>
      <trkpt lat="44.91668" lon="4.44472">
        <ele>427.44</ele>
        <time>2015-09-02T11:57:30Z</time>
      </trkpt>
      <trkpt lat="44.91668" lon="4.44411">
        <ele>427.92</ele>
        <time>2015-09-02T11:57:40Z</time>
      </trkpt>
      <trkpt lat="44.91667" lon="4.44405">
        <ele>427.92</ele>
        <time>2015-09-02T11:57:41Z</time>
      </trkpt>
      <trkpt lat="44.91665" lon="4.44332">
        <ele>427.92</ele>
        <time>2015-09-02T11:57:53Z</time>
      </trkpt>
      <trkpt lat="44.9167" lon="4.44231">
        <ele>427.92</ele>
        <time>2015-09-02T11:58:08Z</time>
      </trkpt>
      <trkpt lat="44.91672" lon="4.44217">
        <ele>427.92</ele>
        <time>2015-09-02T11:58:10Z</time>
      </trkpt>
      <trkpt lat="44.91679" lon="4.44132">
        <ele>428.4</ele>
        <time>2015-09-02T11:58:23Z</time>
      </trkpt>
      <trkpt lat="44.91665" lon="4.44021">
        <ele>428.89</ele>
        <time>2015-09-02T11:58:39Z</time>
      </trkpt>
      <trkpt lat="44.91652" lon="4.43939">
        <ele>428.89</ele>
        <time>2015-09-02T11:58:51Z</time>
      </trkpt>
      <trkpt lat="44.91651" lon="4.43932">
        <ele>428.89</ele>
        <time>2015-09-02T11:58:52Z</time>
      </trkpt>
      <trkpt lat="44.91632" lon="4.43817">
        <ele>428.89</ele>
        <time>2015-09-02T11:59:09Z</time>
      </trkpt>
      <trkpt lat="44.91617" lon="4.43715">
        <ele>429.85</ele>
        <time>2015-09-02T11:59:24Z</time>
      </trkpt>
      <trkpt lat="44.91606" lon="4.43603">
        <ele>429.85</ele>
        <time>2015-09-02T11:59:42Z</time>
      </trkpt>
      <trkpt lat="44.91607" lon="4.43528">
        <ele>429.85</ele>
        <time>2015-09-02T11:59:57Z</time>
      </trkpt>
      <trkpt lat="44.91614" lon="4.43439">
        <ele>430.81</ele>
        <time>2015-09-02T12:00:13Z</time>
      </trkpt>
      <trkpt lat="44.91604" lon="4.43349">
        <ele>431.29</ele>
        <time>2015-09-02T12:00:28Z</time>
      </trkpt>
      <trkpt lat="44.91589" lon="4.43303">
        <ele>431.77</ele>
        <time>2015-09-02T12:00:36Z</time>
      </trkpt>
      <trkpt lat="44.91552" lon="4.43205">
        <ele>433.69</ele>
        <time>2015-09-02T12:00:53Z</time>
      </trkpt>
      <trkpt lat="44.915" lon="4.43101">
        <ele>433.21</ele>
        <time>2015-09-02T12:01:12Z</time>
      </trkpt>
      <trkpt lat="44.9145" lon="4.4303">
        <ele>433.21</ele>
        <time>2015-09-02T12:01:28Z</time>
      </trkpt>
      <trkpt lat="44.9141" lon="4.42968">
        <ele>433.21</ele>
        <time>2015-09-02T12:01:41Z</time>
      </trkpt>
      <trkpt lat="44.91404" lon="4.42958">
        <ele>431.77</ele>
        <time>2015-09-02T12:01:43Z</time>
      </trkpt>
      <trkpt lat="44.91386" lon="4.42927">
        <ele>432.73</ele>
        <time>2015-09-02T12:01:49Z</time>
      </trkpt>
      <trkpt lat="44.91362" lon="4.42886">
        <ele>433.69</ele>
        <time>2015-09-02T12:01:58Z</time>
      </trkpt>
      <trkpt lat="44.91336" lon="4.4284">
        <ele>434.65</ele>
        <time>2015-09-02T12:02:09Z</time>
      </trkpt>
      <trkpt lat="44.91336" lon="4.42836">
        <ele>434.65</ele>
        <time>2015-09-02T12:02:10Z</time>
      </trkpt>
      <trkpt lat="44.91336" lon="4.42832">
        <ele>434.65</ele>
        <time>2015-09-02T12:02:11Z</time>
      </trkpt>
      <trkpt lat="44.91336" lon="4.42828">
        <ele>435.13</ele>
        <time>2015-09-02T12:02:12Z</time>
      </trkpt>
      <trkpt lat="44.91336" lon="4.42825">
        <ele>435.13</ele>
        <time>2015-09-02T12:02:13Z</time>
      </trkpt>
      <trkpt lat="44.91336" lon="4.42821">
        <ele>435.61</ele>
        <time>2015-09-02T12:02:14Z</time>
      </trkpt>
      <trkpt lat="44.91333" lon="4.4281">
        <ele>436.58</ele>
        <time>2015-09-02T12:02:25Z</time>
      </trkpt>
      <trkpt lat="44.91333" lon="4.4281">
        <ele>437.06</ele>
        <time>2015-09-02T12:02:33Z</time>
      </trkpt>
    </trkseg>
  </trk>
</gpx>